Observation data for Crowell on 05/24/2020      Previous  Date  Next       Current Mesonet Observations  Soil Data  Daily Summary Page  Observations in Plain Language
KCR1 240500Z 32008KT 19/16 A2985 RMK A01 T01900160  RH  083%=      5-min Rain = 0.01
KCR1 240501Z 31008KT 19/16 A2985 RMK A01 T01900159  RH  082%=      5-min Rain = 0
KCR1 240502Z 31007KT 19/16 A2986 RMK A01 T01900158  RH  082%=      5-min Rain = 0
KCR1 240503Z 31006KT 19/16 A2986 RMK A01 T01910159  RH  082%=      5-min Rain = 0
KCR1 240504Z 31006KT 19/16 A2986 RMK A01 T01900159  RH  082%=      5-min Rain = 0
KCR1 240505Z 31005KT 19/16 A2986 RMK A01 T01900160  RH  083%=      5-min Rain = 0
KCR1 240506Z 31004KT 19/16 A2986 RMK A01 T01900160  RH  082%=      5-min Rain = 0
KCR1 240507Z 31004KT 19/16 A2986 RMK A01 T01900159  RH  082%=      5-min Rain = 0
KCR1 240508Z 33003KT 19/16 A2986 RMK A01 T01900161  RH  083%=      5-min Rain = 0
KCR1 240509Z 35003KT 19/16 A2986 RMK A01 T01890161  RH  084%=      5-min Rain = 0
KCR1 240510Z 00003KT 19/16 A2986 RMK A01 T01890162  RH  084%=      5-min Rain = 0
KCR1 240511Z 00003KT 19/16 A2986 RMK A01 T01890163  RH  085%=      5-min Rain = 0
KCR1 240512Z 01003KT 19/16 A2986 RMK A01 T01880164  RH  086%=      5-min Rain = 0
KCR1 240513Z 01003KT 19/16 A2986 RMK A01 T01870163  RH  086%=      5-min Rain = 0
KCR1 240514Z 01003KT 19/16 A2986 RMK A01 T01870163  RH  086%=      5-min Rain = 0
KCR1 240515Z 01003KT 19/17 A2986 RMK A01 T01870165  RH  087%=      5-min Rain = 0
KCR1 240516Z 01003KT 19/17 A2986 RMK A01 T01870165  RH  087%=      5-min Rain = 0
KCR1 240517Z 02004KT 19/17 A2986 RMK A01 T01870166  RH  087%=      5-min Rain = 0
KCR1 240518Z 03004KT 19/17 A2986 RMK A01 T01870167  RH  088%=      5-min Rain = 0
KCR1 240519Z 04005KT 19/17 A2985 RMK A01 T01870168  RH  089%=      5-min Rain = 0
KCR1 240520Z 05006KT 19/17 A2985 RMK A01 T01870170  RH  090%=      5-min Rain = 0
KCR1 240521Z 06007KT 19/17 A2985 RMK A01 T01860171  RH  091%=      5-min Rain = 0
KCR1 240522Z 06008KT 19/17 A2984 RMK A01 T01860172  RH  091%=      5-min Rain = 0
KCR1 240523Z 06008KT 19/17 A2984 RMK A01 T01850171  RH  092%=      5-min Rain = 0
KCR1 240524Z 07010KT 19/17 A2984 RMK A01 T01850171  RH  091%=      5-min Rain = 0
KCR1 240525Z 06010KT 19/17 A2983 RMK A01 T01850170  RH  091%=      5-min Rain = 0
KCR1 240526Z 07012KT 19/17 A2982 RMK A01 T01850169  RH  091%=      5-min Rain = 0
KCR1 240527Z 07013KT 18/17 A2982 RMK A01 T01840168  RH  090%=      5-min Rain = 0
KCR1 240528Z 07014KT 18/17 A2981 RMK A01 T01840167  RH  089%=      5-min Rain = 0
KCR1 240529Z 08015KT 19/17 A2979 RMK A01 T01850166  RH  089%=      5-min Rain = 0
KCR1 240530Z 08016KT 19/17 A2978 RMK A01 T01860165  RH  088%=      5-min Rain = 0
KCR1 240531Z 08016KT 19/16 A2978 RMK A01 T01870164  RH  087%=      5-min Rain = 0
KCR1 240532Z 07016KT 19/16 A2977 RMK A01 T01870164  RH  086%=      5-min Rain = 0
KCR1 240533Z 07017KT 19/16 A2976 RMK A01 T01870164  RH  086%=      5-min Rain = 0.01
KCR1 240534Z 07018KT 19/16 A2976 RMK A01 T01870163  RH  086%=      5-min Rain = 0
KCR1 240535Z 07017KT 19/16 A2975 RMK A01 T01870162  RH  085%=      5-min Rain = 0
KCR1 240536Z 07017KT 19/16 A2975 RMK A01 T01880163  RH  085%=      5-min Rain = 0
KCR1 240537Z 07018KT 19/16 A2975 RMK A01 T01870161  RH  085%=      5-min Rain = 0
KCR1 240538Z 07015KT 19/16 A2975 RMK A01 T01880161  RH  084%=      5-min Rain = 0
KCR1 240539Z 07016KT 19/16 A2975 RMK A01 T01890162  RH  084%=      5-min Rain = 0
KCR1 240540Z 08018KT 19/16 A2975 RMK A01 T01890160  RH  083%=      5-min Rain = 0
KCR1 240541Z 09019KT 19/16 A2975 RMK A01 T01890159  RH  082%=      5-min Rain = 0
KCR1 240542Z 10020KT 19/16 A2975 RMK A01 T01900158  RH  082%=      5-min Rain = 0
KCR1 240543Z 10019G24KT 19/16 A2975 RMK A01 T01910158  RH  081%=      5-min Rain = 0
KCR1 240544Z 10018KT 19/16 A2975 RMK A01 T01910162  RH  083%=      5-min Rain = 0
KCR1 240545Z 11019KT 19/16 A2976 RMK A01 T01900163  RH  084%=      5-min Rain = 0
KCR1 240546Z 11017KT 19/16 A2977 RMK A01 T01900163  RH  085%=      5-min Rain = 0
KCR1 240547Z 12018KT 19/16 A2977 RMK A01 T01900163  RH  085%=      5-min Rain = 0
KCR1 240548Z 13018KT 19/16 A2978 RMK A01 T01890164  RH  085%=      5-min Rain = 0
KCR1 240549Z 13019G24KT 19/16 A2978 RMK A01 T01880164  RH  086%=      5-min Rain = 0
KCR1 240550Z 14018KT 19/16 A2978 RMK A01 T01880164  RH  086%=      5-min Rain = 0
KCR1 240551Z 14018KT 19/17 A2978 RMK A01 T01870165  RH  087%=      5-min Rain = 0
KCR1 240552Z 14020G25KT 19/17 A2978 RMK A01 T01860165  RH  088%=      5-min Rain = 0
KCR1 240553Z 13019KT 18/17 A2978 RMK A01 T01840166  RH  089%=      5-min Rain = 0
KCR1 240554Z 13017KT 18/17 A2978 RMK A01 T01820166  RH  090%=      5-min Rain = 0
KCR1 240555Z 12016KT 18/17 A2978 RMK A01 T01820166  RH  090%=      5-min Rain = 0
KCR1 240556Z 13017KT 18/17 A2978 RMK A01 T01820165  RH  090%=      5-min Rain = 0
KCR1 240557Z 12017KT 18/16 A2978 RMK A01 T01830163  RH  088%=      5-min Rain = 0
KCR1 240558Z 12017KT 18/16 A2978 RMK A01 T01840162  RH  087%=      5-min Rain = 0
KCR1 240559Z 12014KT 19/16 A2978 RMK A01 T01850162  RH  086%=      5-min Rain = 0
KCR1 240600Z 12015KT 19/16 A2978 RMK A01 T01860162  RH  086%=      5-min Rain = 0
KCR1 240601Z 12015KT 19/16 A2978 RMK A01 T01860160  RH  085%=      5-min Rain = 0
KCR1 240602Z 12014KT 19/16 A2978 RMK A01 T01870161  RH  085%=      5-min Rain = 0
KCR1 240603Z 12015KT 19/16 A2978 RMK A01 T01870160  RH  084%=      5-min Rain = 0
KCR1 240604Z 13016KT 19/16 A2979 RMK A01 T01880158  RH  083%=      5-min Rain = 0
KCR1 240605Z 12015KT 19/16 A2979 RMK A01 T01890157  RH  082%=      5-min Rain = 0
KCR1 240606Z 12014KT 19/16 A2979 RMK A01 T01900157  RH  082%=      5-min Rain = 0
KCR1 240607Z 12015KT 19/16 A2979 RMK A01 T01900156  RH  081%=      5-min Rain = 0
KCR1 240608Z 12014KT 19/16 A2978 RMK A01 T01910156  RH  080%=      5-min Rain = 0
KCR1 240609Z 12013KT 19/16 A2978 RMK A01 T01910157  RH  080%=      5-min Rain = 0
KCR1 240610Z 12015KT 19/16 A2978 RMK A01 T01910155  RH  079%=      5-min Rain = 0
KCR1 240611Z 12013KT 19/15 A2978 RMK A01 T01920154  RH  079%=      5-min Rain = 0
KCR1 240612Z 12014KT 19/15 A2978 RMK A01 T01930154  RH  078%=      5-min Rain = 0
KCR1 240613Z 12014KT 19/15 A2978 RMK A01 T01940154  RH  078%=      5-min Rain = 0
KCR1 240614Z 12014KT 19/15 A2978 RMK A01 T01940153  RH  077%=      5-min Rain = 0
KCR1 240615Z 11013KT 19/15 A2978 RMK A01 T01940153  RH  077%=      5-min Rain = 0
KCR1 240616Z 11013KT 20/16 A2978 RMK A01 T01950155  RH  077%=      5-min Rain = 0
KCR1 240617Z 11012KT 20/15 A2978 RMK A01 T01950153  RH  077%=      5-min Rain = 0
KCR1 240618Z 11011KT 20/15 A2978 RMK A01 T01950153  RH  077%=      5-min Rain = 0
KCR1 240619Z 11012KT 20/15 A2978 RMK A01 T01950153  RH  077%=      5-min Rain = 0
KCR1 240620Z 10012KT 20/15 A2978 RMK A01 T01950153  RH  077%=      5-min Rain = 0
KCR1 240621Z 11010KT 20/15 A2978 RMK A01 T01950152  RH  076%=      5-min Rain = 0
KCR1 240622Z 11010KT 20/15 A2977 RMK A01 T01960153  RH  076%=      5-min Rain = 0
KCR1 240623Z 11010KT 20/16 A2977 RMK A01 T01960155  RH  077%=      5-min Rain = 0
KCR1 240624Z 11011KT 20/15 A2977 RMK A01 T01950154  RH  077%=      5-min Rain = 0
KCR1 240625Z 11010KT 20/15 A2977 RMK A01 T01950154  RH  077%=      5-min Rain = 0
KCR1 240626Z 11010KT 20/15 A2977 RMK A01 T01960154  RH  077%=      5-min Rain = 0
KCR1 240627Z 10011KT 20/15 A2976 RMK A01 T01960153  RH  076%=      5-min Rain = 0
KCR1 240628Z 10011KT 20/15 A2976 RMK A01 T01960153  RH  076%=      5-min Rain = 0
KCR1 240629Z 10012KT 20/15 A2976 RMK A01 T01970151  RH  075%=      5-min Rain = 0
KCR1 240630Z 09011KT 20/15 A2976 RMK A01 T01990152  RH  074%=      5-min Rain = 0
KCR1 240631Z 09010KT 20/15 A2976 RMK A01 T01990153  RH  075%=      5-min Rain = 0
KCR1 240632Z 09011KT 20/15 A2976 RMK A01 T01990153  RH  075%=      5-min Rain = 0
KCR1 240633Z 09010KT 20/15 A2976 RMK A01 T01990153  RH  075%=      5-min Rain = 0
KCR1 240634Z 08010KT 20/15 A2976 RMK A01 T01980152  RH  075%=      5-min Rain = 0
KCR1 240635Z 09009KT 20/15 A2976 RMK A01 T01990151  RH  074%=      5-min Rain = 0
KCR1 240636Z 08009KT 20/15 A2976 RMK A01 T01990151  RH  074%=      5-min Rain = 0
KCR1 240637Z 09008KT 20/15 A2977 RMK A01 T01990153  RH  075%=      5-min Rain = 0
KCR1 240638Z 09008KT 20/15 A2977 RMK A01 T01980153  RH  075%=      5-min Rain = 0
KCR1 240639Z 09008KT 20/15 A2976 RMK A01 T01980151  RH  074%=      5-min Rain = 0
KCR1 240640Z 09007KT 20/15 A2976 RMK A01 T01980151  RH  074%=      5-min Rain = 0
KCR1 240641Z 09007KT 20/15 A2976 RMK A01 T01990152  RH  074%=      5-min Rain = 0
KCR1 240642Z 08007KT 20/15 A2976 RMK A01 T01990153  RH  075%=      5-min Rain = 0
KCR1 240643Z 08007KT 20/15 A2976 RMK A01 T01980154  RH  075%=      5-min Rain = 0
KCR1 240644Z 09008KT 20/15 A2976 RMK A01 T01980153  RH  075%=      5-min Rain = 0
KCR1 240645Z 09008KT 20/15 A2976 RMK A01 T01980151  RH  074%=      5-min Rain = 0
KCR1 240646Z 10008KT 20/15 A2976 RMK A01 T01980150  RH  074%=      5-min Rain = 0
KCR1 240647Z 09007KT 20/15 A2976 RMK A01 T01990151  RH  073%=      5-min Rain = 0
KCR1 240648Z 10008KT 20/15 A2976 RMK A01 T02000152  RH  074%=      5-min Rain = 0
KCR1 240649Z 10007KT 20/15 A2976 RMK A01 T02000151  RH  073%=      5-min Rain = 0
KCR1 240650Z 09007KT 20/15 A2976 RMK A01 T02000151  RH  074%=      5-min Rain = 0
KCR1 240651Z 09007KT 20/15 A2976 RMK A01 T02000152  RH  074%=      5-min Rain = 0
KCR1 240652Z 10006KT 20/15 A2977 RMK A01 T02000153  RH  074%=      5-min Rain = 0
KCR1 240653Z 11005KT 20/15 A2977 RMK A01 T01990154  RH  075%=      5-min Rain = 0
KCR1 240654Z 12005KT 20/15 A2977 RMK A01 T01990154  RH  075%=      5-min Rain = 0
KCR1 240655Z 13004KT 20/16 A2977 RMK A01 T01990155  RH  076%=      5-min Rain = 0
KCR1 240656Z 13003KT 20/16 A2977 RMK A01 T01980156  RH  077%=      5-min Rain = 0
KCR1 240657Z 11002KT 20/16 A2977 RMK A01 T01970157  RH  078%=      5-min Rain = 0
KCR1 240658Z 09002KT 20/16 A2977 RMK A01 T01960157  RH  078%=      5-min Rain = 0
KCR1 240659Z 10002KT 20/16 A2978 RMK A01 T01960157  RH  079%=      5-min Rain = 0
KCR1 240700Z 11001KT 20/16 A2977 RMK A01 T01950159  RH  080%=      5-min Rain = 0
KCR1 240701Z 12002KT 20/16 A2977 RMK A01 T01950160  RH  080%=      5-min Rain = 0
KCR1 240702Z 14004KT 19/16 A2977 RMK A01 T01940159  RH  080%=      5-min Rain = 0
KCR1 240703Z 14006KT 19/16 A2977 RMK A01 T01940159  RH  080%=      5-min Rain = 0
KCR1 240704Z 14006KT 19/16 A2977 RMK A01 T01930159  RH  081%=      5-min Rain = 0
KCR1 240705Z 13006KT 19/16 A2977 RMK A01 T01930159  RH  081%=      5-min Rain = 0
KCR1 240706Z 12006KT 19/16 A2977 RMK A01 T01920159  RH  081%=      5-min Rain = 0
KCR1 240707Z 11006KT 19/16 A2977 RMK A01 T01920159  RH  081%=      5-min Rain = 0
KCR1 240708Z 10005KT 19/16 A2976 RMK A01 T01920158  RH  081%=      5-min Rain = 0
KCR1 240709Z 11005KT 19/16 A2976 RMK A01 T01920158  RH  081%=      5-min Rain = 0
KCR1 240710Z 12004KT 19/16 A2976 RMK A01 T01920158  RH  081%=      5-min Rain = 0
KCR1 240711Z 13004KT 19/16 A2976 RMK A01 T01920158  RH  080%=      5-min Rain = 0
KCR1 240712Z 15003KT 19/16 A2976 RMK A01 T01920158  RH  080%=      5-min Rain = 0
KCR1 240713Z 18002KT 19/16 A2976 RMK A01 T01920160  RH  082%=      5-min Rain = 0
KCR1 240714Z 20002KT 19/16 A2976 RMK A01 T01920161  RH  082%=      5-min Rain = 0
KCR1 240715Z 28002KT 19/16 A2977 RMK A01 T01910162  RH  083%=      5-min Rain = 0
KCR1 240716Z 34006KT 19/16 A2977 RMK A01 T01910164  RH  084%=      5-min Rain = 0
KCR1 240717Z 36010KT 19/17 A2977 RMK A01 T01910166  RH  086%=      5-min Rain = 0
KCR1 240718Z 00008KT 19/16 A2977 RMK A01 T01900164  RH  085%=      5-min Rain = 0
KCR1 240719Z 01003KT 19/16 A2977 RMK A01 T01890161  RH  084%=      5-min Rain = 0
KCR1 240720Z 12000KT 19/16 A2977 RMK A01 T01890159  RH  083%=      5-min Rain = 0
KCR1 240721Z 12002KT 19/16 A2976 RMK A01 T01890158  RH  082%=      5-min Rain = 0
KCR1 240722Z 12003KT 19/16 A2976 RMK A01 T01890159  RH  082%=      5-min Rain = 0
KCR1 240723Z 14005KT 19/16 A2977 RMK A01 T01900159  RH  082%=      5-min Rain = 0
KCR1 240724Z 15009KT 19/16 A2977 RMK A01 T01900161  RH  083%=      5-min Rain = 0
KCR1 240725Z 15012KT 19/16 A2978 RMK A01 T01900163  RH  084%=      5-min Rain = 0
KCR1 240726Z 15014KT 19/16 A2978 RMK A01 T01890164  RH  085%=      5-min Rain = 0
KCR1 240727Z 16015KT 19/16 A2978 RMK A01 T01890163  RH  085%=      5-min Rain = 0
KCR1 240728Z 16011KT 19/16 A2978 RMK A01 T01890163  RH  085%=      5-min Rain = 0
KCR1 240729Z 17008KT 19/16 A2978 RMK A01 T01890164  RH  085%=      5-min Rain = 0
KCR1 240730Z 17007KT 19/17 A2978 RMK A01 T01890165  RH  086%=      5-min Rain = 0
KCR1 240731Z 16007KT 19/16 A2978 RMK A01 T01880163  RH  085%=      5-min Rain = 0
KCR1 240732Z 15009KT 19/16 A2978 RMK A01 T01880160  RH  084%=      5-min Rain = 0
KCR1 240733Z 15008KT 19/16 A2979 RMK A01 T01890160  RH  083%=      5-min Rain = 0
KCR1 240734Z 14009KT 19/16 A2979 RMK A01 T01890160  RH  083%=      5-min Rain = 0
KCR1 240735Z 14012KT 19/16 A2979 RMK A01 T01890159  RH  083%=      5-min Rain = 0
KCR1 240736Z 14007KT 19/16 A2979 RMK A01 T01890157  RH  082%=      5-min Rain = 0
KCR1 240737Z 14008KT 19/16 A2979 RMK A01 T01890158  RH  082%=      5-min Rain = 0
KCR1 240738Z 14011KT 19/16 A2979 RMK A01 T01890158  RH  082%=      5-min Rain = 0
KCR1 240739Z 14012KT 19/16 A298 RMK A01 T01890158  RH  082%=      5-min Rain = 0
KCR1 240740Z 14008KT 19/16 A298 RMK A01 T01890158  RH  082%=      5-min Rain = 0
KCR1 240741Z 15006KT 19/16 A2979 RMK A01 T01890158  RH  083%=      5-min Rain = 0
KCR1 240742Z 14005KT 19/16 A2979 RMK A01 T01880158  RH  082%=      5-min Rain = 0
KCR1 240743Z 15009KT 19/16 A2979 RMK A01 T01880158  RH  083%=      5-min Rain = 0
KCR1 240744Z 15009KT 19/16 A2979 RMK A01 T01880158  RH  083%=      5-min Rain = 0
KCR1 240745Z 15007KT 19/16 A2979 RMK A01 T01880156  RH  082%=      5-min Rain = 0
KCR1 240746Z 15007KT 19/16 A2979 RMK A01 T01880157  RH  082%=      5-min Rain = 0
KCR1 240747Z 15008KT 19/16 A298 RMK A01 T01880159  RH  083%=      5-min Rain = 0
KCR1 240748Z 15006KT 19/16 A2979 RMK A01 T01870159  RH  083%=      5-min Rain = 0
KCR1 240749Z 15005KT 19/16 A298 RMK A01 T01870158  RH  084%=      5-min Rain = 0
KCR1 240750Z 15005KT 19/16 A298 RMK A01 T01860159  RH  084%=      5-min Rain = 0
KCR1 240751Z 15005KT 19/16 A298 RMK A01 T01860159  RH  084%=      5-min Rain = 0
KCR1 240752Z 15005KT 19/16 A298 RMK A01 T01860158  RH  084%=      5-min Rain = 0
KCR1 240753Z 15005KT 19/16 A298 RMK A01 T01850159  RH  084%=      5-min Rain = 0
KCR1 240754Z 15004KT 19/16 A298 RMK A01 T01850159  RH  085%=      5-min Rain = 0
KCR1 240755Z 16003KT 19/16 A298 RMK A01 T01850159  RH  085%=      5-min Rain = 0
KCR1 240756Z 17003KT 19/16 A298 RMK A01 T01850158  RH  085%=      5-min Rain = 0
KCR1 240757Z 17003KT 19/16 A298 RMK A01 T01850158  RH  084%=      5-min Rain = 0
KCR1 240758Z 16003KT 19/16 A298 RMK A01 T01850157  RH  084%=      5-min Rain = 0
KCR1 240759Z 16003KT 19/16 A298 RMK A01 T01850158  RH  084%=      5-min Rain = 0
KCR1 240800Z 15003KT 19/16 A298 RMK A01 T01850157  RH  084%=      5-min Rain = 0
KCR1 240801Z 15003KT 19/16 A298 RMK A01 T01850157  RH  084%=      5-min Rain = 0
KCR1 240802Z 14003KT 19/16 A298 RMK A01 T01850157  RH  083%=      5-min Rain = 0
KCR1 240803Z 14002KT 19/16 A298 RMK A01 T01860156  RH  083%=      5-min Rain = 0
KCR1 240804Z 14003KT 19/16 A298 RMK A01 T01860157  RH  083%=      5-min Rain = 0
KCR1 240805Z 16003KT 19/16 A298 RMK A01 T01860157  RH  084%=      5-min Rain = 0
KCR1 240806Z 16003KT 19/16 A298 RMK A01 T01860158  RH  084%=      5-min Rain = 0
KCR1 240807Z 17003KT 19/16 A298 RMK A01 T01860159  RH  084%=      5-min Rain = 0
KCR1 240808Z 16003KT 19/16 A298 RMK A01 T01850159  RH  085%=      5-min Rain = 0
KCR1 240809Z 16003KT 19/16 A298 RMK A01 T01850159  RH  085%=      5-min Rain = 0
KCR1 240810Z 18003KT 19/16 A298 RMK A01 T01850159  RH  085%=      5-min Rain = 0
KCR1 240811Z 18003KT 19/16 A298 RMK A01 T01850160  RH  085%=      5-min Rain = 0
KCR1 240812Z 19003KT 19/16 A298 RMK A01 T01850161  RH  086%=      5-min Rain = 0
KCR1 240813Z 18003KT 18/16 A2979 RMK A01 T01840161  RH  086%=      5-min Rain = 0
KCR1 240814Z 17002KT 18/16 A2979 RMK A01 T01840161  RH  086%=      5-min Rain = 0
KCR1 240815Z 17003KT 18/16 A2979 RMK A01 T01840161  RH  086%=      5-min Rain = 0
KCR1 240816Z 19003KT 18/16 A298 RMK A01 T01840161  RH  087%=      5-min Rain = 0
KCR1 240817Z 20004KT 18/16 A298 RMK A01 T01830163  RH  088%=      5-min Rain = 0
KCR1 240818Z 20003KT 18/16 A298 RMK A01 T01830163  RH  088%=      5-min Rain = 0
KCR1 240819Z 21002KT 18/16 A2979 RMK A01 T01830161  RH  087%=      5-min Rain = 0
KCR1 240820Z 21002KT 18/16 A2979 RMK A01 T01820162  RH  088%=      5-min Rain = 0
KCR1 240821Z 21004KT 18/16 A2979 RMK A01 T01820162  RH  088%=      5-min Rain = 0
KCR1 240822Z 22005KT 18/16 A298 RMK A01 T01820161  RH  088%=      5-min Rain = 0
KCR1 240823Z 23005KT 18/16 A298 RMK A01 T01820161  RH  087%=      5-min Rain = 0
KCR1 240824Z 23004KT 18/16 A298 RMK A01 T01820161  RH  087%=      5-min Rain = 0
KCR1 240825Z 23004KT 18/16 A298 RMK A01 T01820162  RH  088%=      5-min Rain = 0
KCR1 240826Z 22003KT 18/16 A298 RMK A01 T01820160  RH  087%=      5-min Rain = 0
KCR1 240827Z 21002KT 18/16 A298 RMK A01 T01820160  RH  087%=      5-min Rain = 0
KCR1 240828Z 20002KT 18/16 A298 RMK A01 T01820160  RH  087%=      5-min Rain = 0
KCR1 240829Z 21002KT 18/16 A298 RMK A01 T01820159  RH  087%=      5-min Rain = 0
KCR1 240830Z 22002KT 18/16 A298 RMK A01 T01820159  RH  087%=      5-min Rain = 0
KCR1 240831Z 22003KT 18/16 A298 RMK A01 T01820159  RH  087%=      5-min Rain = 0
KCR1 240832Z 23003KT 18/16 A298 RMK A01 T01820159  RH  086%=      5-min Rain = 0
KCR1 240833Z 23003KT 18/16 A298 RMK A01 T01820160  RH  087%=      5-min Rain = 0
KCR1 240834Z 24003KT 18/16 A298 RMK A01 T01820160  RH  087%=      5-min Rain = 0
KCR1 240835Z 24002KT 18/16 A298 RMK A01 T01810160  RH  088%=      5-min Rain = 0
KCR1 240836Z 24002KT 18/16 A298 RMK A01 T01810161  RH  088%=      5-min Rain = 0
KCR1 240837Z 23003KT 18/16 A298 RMK A01 T01810161  RH  088%=      5-min Rain = 0
KCR1 240838Z 23003KT 18/16 A298 RMK A01 T01800160  RH  088%=      5-min Rain = 0
KCR1 240839Z 23002KT 18/16 A298 RMK A01 T01800160  RH  088%=      5-min Rain = 0
KCR1 240840Z 23003KT 18/16 A2981 RMK A01 T01810161  RH  088%=      5-min Rain = 0
KCR1 240841Z 23004KT 18/16 A2981 RMK A01 T01800161  RH  088%=      5-min Rain = 0
KCR1 240842Z 23004KT 18/16 A2981 RMK A01 T01800160  RH  088%=      5-min Rain = 0
KCR1 240843Z 23004KT 18/16 A2981 RMK A01 T01800160  RH  088%=      5-min Rain = 0
KCR1 240844Z 23004KT 18/16 A2981 RMK A01 T01800160  RH  088%=      5-min Rain = 0
KCR1 240845Z 23003KT 18/16 A2981 RMK A01 T01800159  RH  087%=      5-min Rain = 0
KCR1 240846Z 23002KT 18/16 A2981 RMK A01 T01810158  RH  087%=      5-min Rain = 0
KCR1 240847Z 23001KT 18/16 A2981 RMK A01 T01810158  RH  086%=      5-min Rain = 0
KCR1 240848Z 23000KT 18/16 A2981 RMK A01 T01810158  RH  087%=      5-min Rain = 0
KCR1 240849Z 00000KT 18/16 A2982 RMK A01 T01810159  RH  087%=      5-min Rain = 0
KCR1 240850Z 07000KT 18/16 A2982 RMK A01 T01810159  RH  087%=      5-min Rain = 0
KCR1 240851Z 07001KT 18/16 A2982 RMK A01 T01810161  RH  088%=      5-min Rain = 0
KCR1 240852Z 08003KT 18/17 A2982 RMK A01 T01820165  RH  090%=      5-min Rain = 0
KCR1 240853Z 07004KT 18/17 A2982 RMK A01 T01810165  RH  090%=      5-min Rain = 0
KCR1 240854Z 07004KT 18/16 A2982 RMK A01 T01810164  RH  090%=      5-min Rain = 0
KCR1 240855Z 07004KT 18/17 A2982 RMK A01 T01810165  RH  090%=      5-min Rain = 0
KCR1 240856Z 06005KT 18/17 A2982 RMK A01 T01810165  RH  091%=      5-min Rain = 0
KCR1 240857Z 07006KT 18/17 A2982 RMK A01 T01810166  RH  091%=      5-min Rain = 0
KCR1 240858Z 07006KT 18/17 A2982 RMK A01 T01800166  RH  092%=      5-min Rain = 0
KCR1 240859Z 08006KT 18/17 A2982 RMK A01 T01800166  RH  092%=      5-min Rain = 0
KCR1 240900Z 09007KT 18/17 A2982 RMK A01 T01790166  RH  092%=      5-min Rain = 0
KCR1 240901Z 09006KT 18/17 A2982 RMK A01 T01790166  RH  092%=      5-min Rain = 0
KCR1 240902Z 09006KT 18/17 A2982 RMK A01 T01790166  RH  092%=      5-min Rain = 0
KCR1 240903Z 09004KT 18/17 A2981 RMK A01 T01790166  RH  092%=      5-min Rain = 0
KCR1 240904Z 10003KT 18/17 A2981 RMK A01 T01790166  RH  092%=      5-min Rain = 0
KCR1 240905Z 11002KT 18/17 A2981 RMK A01 T01790166  RH  092%=      5-min Rain = 0
KCR1 240906Z 14001KT 18/17 A2981 RMK A01 T01790166  RH  092%=      5-min Rain = 0
KCR1 240907Z 15001KT 18/17 A2981 RMK A01 T01790166  RH  092%=      5-min Rain = 0
KCR1 240908Z 12001KT 18/17 A2981 RMK A01 T01790166  RH  092%=      5-min Rain = 0
KCR1 240909Z 10002KT 18/17 A2981 RMK A01 T01790165  RH  092%=      5-min Rain = 0
KCR1 240910Z 10001KT 18/17 A2982 RMK A01 T01790165  RH  092%=      5-min Rain = 0
KCR1 240911Z 11001KT 18/17 A2982 RMK A01 T01790166  RH  092%=      5-min Rain = 0
KCR1 240912Z 10001KT 18/17 A2982 RMK A01 T01790165  RH  092%=      5-min Rain = 0
KCR1 240913Z 07000KT 18/17 A2982 RMK A01 T01790166  RH  092%=      5-min Rain = 0
KCR1 240914Z 07002KT 18/17 A2982 RMK A01 T01790166  RH  092%=      5-min Rain = 0
KCR1 240915Z 06003KT 18/17 A2982 RMK A01 T01790166  RH  092%=      5-min Rain = 0
KCR1 240916Z 06004KT 18/17 A2982 RMK A01 T01790167  RH  093%=      5-min Rain = 0
KCR1 240917Z 06004KT 18/17 A2982 RMK A01 T01790167  RH  093%=      5-min Rain = 0
KCR1 240918Z 07004KT 18/17 A2982 RMK A01 T01790168  RH  093%=      5-min Rain = 0
KCR1 240919Z 08004KT 18/17 A2982 RMK A01 T01790168  RH  093%=      5-min Rain = 0
KCR1 240920Z 08003KT 18/17 A2982 RMK A01 T01790168  RH  093%=      5-min Rain = 0
KCR1 240921Z 08001KT 18/17 A2982 RMK A01 T01790168  RH  094%=      5-min Rain = 0
KCR1 240922Z 07001KT 18/17 A2982 RMK A01 T01790169  RH  094%=      5-min Rain = 0
KCR1 240923Z 08000KT 18/17 A2982 RMK A01 T01780168  RH  094%=      5-min Rain = 0
KCR1 240924Z 15000KT 18/17 A2982 RMK A01 T01780168  RH  094%=      5-min Rain = 0
KCR1 240925Z 17001KT 18/17 A2982 RMK A01 T01780168  RH  094%=      5-min Rain = 0
KCR1 240926Z 20001KT 18/17 A2982 RMK A01 T01780168  RH  094%=      5-min Rain = 0
KCR1 240927Z 21001KT 18/17 A2981 RMK A01 T01780167  RH  093%=      5-min Rain = 0
KCR1 240928Z 20001KT 18/17 A2981 RMK A01 T01780167  RH  093%=      5-min Rain = 0
KCR1 240929Z 19002KT 18/17 A2982 RMK A01 T01780167  RH  093%=      5-min Rain = 0
KCR1 240930Z 17003KT 18/17 A2982 RMK A01 T01790167  RH  093%=      5-min Rain = 0
KCR1 240931Z 16003KT 18/17 A2982 RMK A01 T01780167  RH  093%=      5-min Rain = 0
KCR1 240932Z 17003KT 18/17 A2982 RMK A01 T01790168  RH  093%=      5-min Rain = 0
KCR1 240933Z 18003KT 18/17 A2982 RMK A01 T01790167  RH  093%=      5-min Rain = 0
KCR1 240934Z 18003KT 18/17 A2982 RMK A01 T01790168  RH  093%=      5-min Rain = 0
KCR1 240935Z 17002KT 18/17 A2981 RMK A01 T01790168  RH  093%=      5-min Rain = 0
KCR1 240936Z 17003KT 18/17 A2981 RMK A01 T01790168  RH  093%=      5-min Rain = 0
KCR1 240937Z 17003KT 18/17 A2981 RMK A01 T01790168  RH  094%=      5-min Rain = 0
KCR1 240938Z 18003KT 18/17 A2981 RMK A01 T01790169  RH  094%=      5-min Rain = 0
KCR1 240939Z 17003KT 18/17 A2981 RMK A01 T01790169  RH  094%=      5-min Rain = 0
KCR1 240940Z 18003KT 18/17 A2981 RMK A01 T01780168  RH  094%=      5-min Rain = 0
KCR1 240941Z 19004KT 18/17 A2981 RMK A01 T01780168  RH  094%=      5-min Rain = 0
KCR1 240942Z 21004KT 18/17 A2981 RMK A01 T01770167  RH  094%=      5-min Rain = 0
KCR1 240943Z 21003KT 18/17 A2981 RMK A01 T01780168  RH  094%=      5-min Rain = 0
KCR1 240944Z 21003KT 18/17 A2981 RMK A01 T01780168  RH  094%=      5-min Rain = 0
KCR1 240945Z 22003KT 18/17 A2981 RMK A01 T01780167  RH  093%=      5-min Rain = 0
KCR1 240946Z 22003KT 18/17 A2981 RMK A01 T01780167  RH  093%=      5-min Rain = 0
KCR1 240947Z 22002KT 18/17 A2981 RMK A01 T01790167  RH  093%=      5-min Rain = 0
KCR1 240948Z 23000KT 18/17 A2981 RMK A01 T01790168  RH  093%=      5-min Rain = 0
KCR1 240949Z 22001KT 18/17 A2981 RMK A01 T01790168  RH  093%=      5-min Rain = 0
KCR1 240950Z 23001KT 18/17 A2981 RMK A01 T01780167  RH  093%=      5-min Rain = 0
KCR1 240951Z 23000KT 18/17 A2981 RMK A01 T01780166  RH  093%=      5-min Rain = 0
KCR1 240952Z 00000KT 18/17 A2981 RMK A01 T01770166  RH  093%=      5-min Rain = 0
KCR1 240953Z 00000KT 18/17 A2981 RMK A01 T01770166  RH  093%=      5-min Rain = 0
KCR1 240954Z 00000KT 18/17 A2981 RMK A01 T01770166  RH  093%=      5-min Rain = 0
KCR1 240955Z 00000KT 18/17 A2981 RMK A01 T01770167  RH  093%=      5-min Rain = 0
KCR1 240956Z 00000KT 18/17 A2981 RMK A01 T01770166  RH  093%=      5-min Rain = 0
KCR1 240957Z 21001KT 18/17 A2981 RMK A01 T01770167  RH  094%=      5-min Rain = 0
KCR1 240958Z 23001KT 18/17 A2981 RMK A01 T01770166  RH  093%=      5-min Rain = 0
KCR1 240959Z 23002KT 18/17 A2981 RMK A01 T01770166  RH  093%=      5-min Rain = 0
KCR1 241000Z 22002KT 18/17 A2981 RMK A01 T01770166  RH  093%=      5-min Rain = 0
KCR1 241001Z 22001KT 18/17 A2981 RMK A01 T01770166  RH  093%=      5-min Rain = 0
KCR1 241002Z 21001KT 18/17 A2981 RMK A01 T01770166  RH  093%=      5-min Rain = 0
KCR1 241003Z 22000KT 18/17 A2981 RMK A01 T01770167  RH  094%=      5-min Rain = 0
KCR1 241004Z 22001KT 18/17 A2981 RMK A01 T01770167  RH  094%=      5-min Rain = 0
KCR1 241005Z 22002KT 18/17 A2981 RMK A01 T01760166  RH  094%=      5-min Rain = 0
KCR1 241006Z 23002KT 18/17 A2981 RMK A01 T01760165  RH  093%=      5-min Rain = 0
KCR1 241007Z 23002KT 18/17 A2981 RMK A01 T01760165  RH  093%=      5-min Rain = 0
KCR1 241008Z 24002KT 18/17 A2981 RMK A01 T01760165  RH  093%=      5-min Rain = 0
KCR1 241009Z 24002KT 18/17 A2981 RMK A01 T01760165  RH  093%=      5-min Rain = 0
KCR1 241010Z 24002KT 18/17 A2981 RMK A01 T01760165  RH  093%=      5-min Rain = 0
KCR1 241011Z 25002KT 18/17 A2981 RMK A01 T01760165  RH  093%=      5-min Rain = 0
KCR1 241012Z 25002KT 18/17 A2981 RMK A01 T01760165  RH  093%=      5-min Rain = 0
KCR1 241013Z 25002KT 18/17 A2981 RMK A01 T01760165  RH  093%=      5-min Rain = 0
KCR1 241014Z 24002KT 18/17 A2981 RMK A01 T01760165  RH  093%=      5-min Rain = 0
KCR1 241015Z 23001KT 18/17 A2981 RMK A01 T01760165  RH  093%=      5-min Rain = 0
KCR1 241016Z 24001KT 18/17 A298 RMK A01 T01760165  RH  093%=      5-min Rain = 0
KCR1 241017Z 24000KT 18/17 A298 RMK A01 T01760165  RH  093%=      5-min Rain = 0
KCR1 241018Z 00000KT 18/17 A298 RMK A01 T01750165  RH  093%=      5-min Rain = 0
KCR1 241019Z 00000KT 18/17 A298 RMK A01 T01750165  RH  094%=      5-min Rain = 0
KCR1 241020Z 00000KT 18/17 A298 RMK A01 T01750165  RH  093%=      5-min Rain = 0
KCR1 241021Z 00000KT 18/16 A298 RMK A01 T01750164  RH  093%=      5-min Rain = 0
KCR1 241022Z 00000KT 18/16 A298 RMK A01 T01750164  RH  093%=      5-min Rain = 0
KCR1 241023Z 00000KT 18/16 A298 RMK A01 T01750164  RH  093%=      5-min Rain = 0
KCR1 241024Z 23001KT 18/16 A298 RMK A01 T01750164  RH  093%=      5-min Rain = 0
KCR1 241025Z 24001KT 18/16 A298 RMK A01 T01750163  RH  093%=      5-min Rain = 0
KCR1 241026Z 24001KT 18/16 A298 RMK A01 T01750163  RH  093%=      5-min Rain = 0
KCR1 241027Z 24001KT 18/16 A298 RMK A01 T01750163  RH  093%=      5-min Rain = 0
KCR1 241028Z 24001KT 18/16 A298 RMK A01 T01760163  RH  092%=      5-min Rain = 0
KCR1 241029Z 23002KT 18/16 A298 RMK A01 T01760163  RH  092%=      5-min Rain = 0
KCR1 241030Z 23002KT 18/16 A298 RMK A01 T01760164  RH  093%=      5-min Rain = 0
KCR1 241031Z 24002KT 18/16 A298 RMK A01 T01760164  RH  093%=      5-min Rain = 0
KCR1 241032Z 24002KT 18/16 A298 RMK A01 T01760164  RH  093%=      5-min Rain = 0
KCR1 241033Z 25002KT 18/16 A298 RMK A01 T01760164  RH  093%=      5-min Rain = 0
KCR1 241034Z 25001KT 18/17 A298 RMK A01 T01760165  RH  093%=      5-min Rain = 0
KCR1 241035Z 25001KT 18/17 A298 RMK A01 T01770165  RH  093%=      5-min Rain = 0
KCR1 241036Z 25001KT 18/17 A2981 RMK A01 T01760165  RH  093%=      5-min Rain = 0
KCR1 241037Z 27001KT 18/17 A2981 RMK A01 T01760165  RH  093%=      5-min Rain = 0
KCR1 241038Z 28001KT 18/17 A2981 RMK A01 T01760165  RH  093%=      5-min Rain = 0
KCR1 241039Z 28000KT 18/17 A2981 RMK A01 T01760165  RH  093%=      5-min Rain = 0
KCR1 241040Z 00000KT 18/17 A2981 RMK A01 T01770165  RH  093%=      5-min Rain = 0
KCR1 241041Z 00000KT 18/17 A2981 RMK A01 T01770165  RH  093%=      5-min Rain = 0
KCR1 241042Z 00000KT 18/17 A2981 RMK A01 T01770165  RH  093%=      5-min Rain = 0
KCR1 241043Z 00000KT 18/17 A2981 RMK A01 T01760165  RH  093%=      5-min Rain = 0
KCR1 241044Z 02000KT 18/17 A2981 RMK A01 T01770167  RH  094%=      5-min Rain = 0
KCR1 241045Z 02001KT 18/17 A2981 RMK A01 T01770167  RH  094%=      5-min Rain = 0
KCR1 241046Z 01001KT 18/17 A2981 RMK A01 T01770168  RH  094%=      5-min Rain = 0
KCR1 241047Z 02001KT 18/17 A2981 RMK A01 T01770168  RH  094%=      5-min Rain = 0
KCR1 241048Z 01001KT 18/17 A2981 RMK A01 T01770168  RH  095%=      5-min Rain = 0
KCR1 241049Z 01001KT 18/17 A2981 RMK A01 T01770169  RH  095%=      5-min Rain = 0
KCR1 241050Z 01001KT 18/17 A2981 RMK A01 T01770169  RH  095%=      5-min Rain = 0
KCR1 241051Z 01000KT 18/17 A2981 RMK A01 T01770169  RH  095%=      5-min Rain = 0
KCR1 241052Z 00000KT 18/17 A2981 RMK A01 T01770170  RH  095%=      5-min Rain = 0
KCR1 241053Z 00000KT 18/17 A2981 RMK A01 T01770169  RH  095%=      5-min Rain = 0
KCR1 241054Z 00000KT 18/17 A2982 RMK A01 T01760169  RH  095%=      5-min Rain = 0
KCR1 241055Z 00000KT 18/17 A2982 RMK A01 T01760169  RH  095%=      5-min Rain = 0
KCR1 241056Z 00000KT 18/17 A2982 RMK A01 T01760169  RH  095%=      5-min Rain = 0
KCR1 241057Z 00000KT 18/17 A2982 RMK A01 T01760169  RH  096%=      5-min Rain = 0
KCR1 241058Z 00000KT 18/17 A2982 RMK A01 T01760169  RH  096%=      5-min Rain = 0
KCR1 241059Z 00000KT 18/17 A2982 RMK A01 T01760169  RH  096%=      5-min Rain = 0
KCR1 241100Z 00000KT 18/17 A2982 RMK A01 T01760169  RH  096%=      5-min Rain = 0
KCR1 241101Z 00000KT 18/17 A2982 RMK A01 T01760169  RH  096%=      5-min Rain = 0
KCR1 241102Z 00000KT 18/17 A2982 RMK A01 T01760169  RH  096%=      5-min Rain = 0
KCR1 241103Z 00000KT 18/17 A2982 RMK A01 T01750169  RH  096%=      5-min Rain = 0
KCR1 241104Z 18001KT 18/17 A2982 RMK A01 T01760170  RH  096%=      5-min Rain = 0
KCR1 241105Z 20001KT 18/17 A2982 RMK A01 T01760170  RH  096%=      5-min Rain = 0
KCR1 241106Z 19002KT 18/17 A2982 RMK A01 T01760170  RH  096%=      5-min Rain = 0
KCR1 241107Z 19002KT 18/17 A2982 RMK A01 T01760170  RH  096%=      5-min Rain = 0
KCR1 241108Z 20002KT 18/17 A2982 RMK A01 T01760170  RH  096%=      5-min Rain = 0
KCR1 241109Z 19002KT 18/17 A2982 RMK A01 T01760169  RH  096%=      5-min Rain = 0
KCR1 241110Z 21002KT 18/17 A2982 RMK A01 T01760170  RH  096%=      5-min Rain = 0
KCR1 241111Z 20003KT 18/17 A2982 RMK A01 T01760169  RH  096%=      5-min Rain = 0
KCR1 241112Z 19003KT 18/17 A2982 RMK A01 T01760169  RH  096%=      5-min Rain = 0
KCR1 241113Z 19003KT 18/17 A2982 RMK A01 T01760168  RH  095%=      5-min Rain = 0
KCR1 241114Z 19003KT 18/17 A2982 RMK A01 T01750168  RH  095%=      5-min Rain = 0
KCR1 241115Z 19005KT 18/17 A2982 RMK A01 T01750167  RH  095%=      5-min Rain = 0
KCR1 241116Z 19005KT 18/17 A2982 RMK A01 T01750166  RH  094%=      5-min Rain = 0
KCR1 241117Z 19004KT 18/16 A2982 RMK A01 T01750164  RH  093%=      5-min Rain = 0
KCR1 241118Z 20004KT 18/16 A2982 RMK A01 T01760164  RH  092%=      5-min Rain = 0
KCR1 241119Z 19004KT 18/16 A2982 RMK A01 T01770164  RH  092%=      5-min Rain = 0
KCR1 241120Z 20005KT 18/16 A2982 RMK A01 T01770164  RH  092%=      5-min Rain = 0
KCR1 241121Z 20005KT 18/16 A2982 RMK A01 T01770164  RH  092%=      5-min Rain = 0
KCR1 241122Z 20005KT 18/16 A2983 RMK A01 T01770163  RH  092%=      5-min Rain = 0
KCR1 241123Z 20005KT 18/16 A2983 RMK A01 T01770163  RH  091%=      5-min Rain = 0
KCR1 241124Z 20006KT 18/16 A2983 RMK A01 T01780162  RH  090%=      5-min Rain = 0
KCR1 241125Z 20006KT 18/16 A2983 RMK A01 T01790162  RH  090%=      5-min Rain = 0
KCR1 241126Z 20005KT 18/16 A2983 RMK A01 T01790162  RH  090%=      5-min Rain = 0
KCR1 241127Z 20005KT 18/16 A2983 RMK A01 T01800162  RH  089%=      5-min Rain = 0
KCR1 241128Z 20004KT 18/16 A2983 RMK A01 T01800162  RH  089%=      5-min Rain = 0
KCR1 241129Z 19004KT 18/16 A2983 RMK A01 T01800163  RH  090%=      5-min Rain = 0
KCR1 241130Z 19005KT 18/16 A2983 RMK A01 T01800163  RH  090%=      5-min Rain = 0
KCR1 241131Z 19005KT 18/16 A2983 RMK A01 T01790162  RH  090%=      5-min Rain = 0
KCR1 241132Z 19006KT 18/16 A2983 RMK A01 T01780162  RH  090%=      5-min Rain = 0
KCR1 241133Z 19006KT 18/16 A2983 RMK A01 T01780162  RH  090%=      5-min Rain = 0
KCR1 241134Z 19006KT 18/16 A2983 RMK A01 T01780162  RH  090%=      5-min Rain = 0
KCR1 241135Z 19006KT 18/16 A2983 RMK A01 T01780162  RH  090%=      5-min Rain = 0
KCR1 241136Z 19007KT 18/16 A2983 RMK A01 T01780162  RH  090%=      5-min Rain = 0
KCR1 241137Z 20006KT 18/16 A2983 RMK A01 T01780162  RH  090%=      5-min Rain = 0
KCR1 241138Z 19006KT 18/16 A2983 RMK A01 T01790163  RH  090%=      5-min Rain = 0
KCR1 241139Z 19006KT 18/16 A2983 RMK A01 T01790163  RH  090%=      5-min Rain = 0
KCR1 241140Z 19006KT 18/16 A2983 RMK A01 T01790163  RH  090%=      5-min Rain = 0
KCR1 241141Z 19006KT 18/16 A2983 RMK A01 T01790163  RH  090%=      5-min Rain = 0
KCR1 241142Z 18006KT 18/16 A2983 RMK A01 T01790163  RH  090%=      5-min Rain = 0
KCR1 241143Z 18007KT 18/16 A2983 RMK A01 T01790163  RH  090%=      5-min Rain = 0
KCR1 241144Z 19006KT 18/16 A2983 RMK A01 T01790163  RH  090%=      5-min Rain = 0
KCR1 241145Z 19006KT 18/16 A2983 RMK A01 T01790163  RH  090%=      5-min Rain = 0
KCR1 241146Z 19006KT 18/16 A2983 RMK A01 T01790164  RH  090%=      5-min Rain = 0
KCR1 241147Z 19006KT 18/16 A2983 RMK A01 T01790164  RH  091%=      5-min Rain = 0
KCR1 241148Z 20005KT 18/16 A2983 RMK A01 T01790164  RH  091%=      5-min Rain = 0
KCR1 241149Z 19005KT 18/17 A2983 RMK A01 T01790165  RH  091%=      5-min Rain = 0
KCR1 241150Z 19006KT 18/16 A2983 RMK A01 T01790164  RH  091%=      5-min Rain = 0
KCR1 241151Z 19006KT 18/16 A2983 RMK A01 T01790164  RH  090%=      5-min Rain = 0
KCR1 241152Z 18006KT 18/16 A2983 RMK A01 T01800164  RH  090%=      5-min Rain = 0
KCR1 241153Z 19006KT 18/16 A2983 RMK A01 T01800164  RH  090%=      5-min Rain = 0
KCR1 241154Z 18006KT 18/16 A2983 RMK A01 T01800164  RH  090%=      5-min Rain = 0
KCR1 241155Z 19005KT 18/16 A2983 RMK A01 T01800164  RH  090%=      5-min Rain = 0
KCR1 241156Z 19006KT 18/17 A2983 RMK A01 T01800165  RH  090%=      5-min Rain = 0
KCR1 241157Z 18006KT 18/16 A2983 RMK A01 T01800164  RH  090%=      5-min Rain = 0
KCR1 241158Z 18005KT 18/17 A2983 RMK A01 T01800165  RH  091%=      5-min Rain = 0
KCR1 241159Z 18005KT 18/17 A2983 RMK A01 T01800165  RH  091%=      5-min Rain = 0
KCR1 241200Z 18006KT 18/17 A2983 RMK A01 T01800165  RH  091%=      5-min Rain = 0
KCR1 241201Z 19007KT 18/17 A2983 RMK A01 T01800165  RH  091%=      5-min Rain = 0
KCR1 241202Z 18006KT 18/17 A2983 RMK A01 T01810165  RH  090%=      5-min Rain = 0
KCR1 241203Z 18006KT 18/17 A2983 RMK A01 T01810165  RH  090%=      5-min Rain = 0
KCR1 241204Z 18006KT 18/17 A2983 RMK A01 T01820165  RH  090%=      5-min Rain = 0
KCR1 241205Z 18006KT 18/17 A2983 RMK A01 T01820165  RH  090%=      5-min Rain = 0
KCR1 241206Z 19005KT 18/17 A2983 RMK A01 T01820166  RH  090%=      5-min Rain = 0
KCR1 241207Z 19005KT 18/17 A2983 RMK A01 T01820166  RH  090%=      5-min Rain = 0
KCR1 241208Z 18005KT 18/17 A2983 RMK A01 T01820166  RH  090%=      5-min Rain = 0
KCR1 241209Z 18004KT 18/17 A2982 RMK A01 T01820166  RH  091%=      5-min Rain = 0
KCR1 241210Z 18004KT 18/17 A2982 RMK A01 T01820167  RH  091%=      5-min Rain = 0
KCR1 241211Z 18005KT 18/17 A2983 RMK A01 T01820166  RH  091%=      5-min Rain = 0
KCR1 241212Z 18006KT 18/17 A2983 RMK A01 T01820167  RH  091%=      5-min Rain = 0
KCR1 241213Z 17005KT 18/17 A2983 RMK A01 T01820166  RH  091%=      5-min Rain = 0
KCR1 241214Z 17005KT 18/17 A2982 RMK A01 T01820166  RH  090%=      5-min Rain = 0
KCR1 241215Z 18004KT 18/17 A2982 RMK A01 T01820166  RH  090%=      5-min Rain = 0
KCR1 241216Z 18005KT 18/17 A2982 RMK A01 T01820166  RH  090%=      5-min Rain = 0
KCR1 241217Z 18005KT 18/17 A2983 RMK A01 T01830166  RH  090%=      5-min Rain = 0
KCR1 241218Z 18006KT 18/17 A2983 RMK A01 T01830166  RH  090%=      5-min Rain = 0
KCR1 241219Z 17005KT 18/17 A2982 RMK A01 T01830166  RH  090%=      5-min Rain = 0
KCR1 241220Z 17004KT 18/17 A2982 RMK A01 T01830166  RH  090%=      5-min Rain = 0
KCR1 241221Z 17005KT 18/17 A2982 RMK A01 T01840167  RH  090%=      5-min Rain = 0
KCR1 241222Z 17005KT 18/17 A2982 RMK A01 T01840167  RH  090%=      5-min Rain = 0
KCR1 241223Z 18005KT 18/17 A2982 RMK A01 T01840168  RH  090%=      5-min Rain = 0
KCR1 241224Z 18005KT 18/17 A2982 RMK A01 T01840168  RH  090%=      5-min Rain = 0
KCR1 241225Z 18005KT 18/17 A2982 RMK A01 T01840168  RH  090%=      5-min Rain = 0
KCR1 241226Z 17005KT 18/17 A2982 RMK A01 T01840168  RH  090%=      5-min Rain = 0
KCR1 241227Z 18005KT 19/17 A2982 RMK A01 T01850168  RH  090%=      5-min Rain = 0
KCR1 241228Z 18005KT 19/17 A2982 RMK A01 T01850169  RH  090%=      5-min Rain = 0
KCR1 241229Z 18006KT 19/17 A2982 RMK A01 T01850169  RH  090%=      5-min Rain = 0
KCR1 241230Z 18005KT 19/17 A2983 RMK A01 T01860169  RH  090%=      5-min Rain = 0
KCR1 241231Z 17005KT 19/17 A2982 RMK A01 T01860169  RH  090%=      5-min Rain = 0
KCR1 241232Z 18005KT 19/17 A2982 RMK A01 T01860168  RH  090%=      5-min Rain = 0
KCR1 241233Z 18004KT 19/17 A2982 RMK A01 T01860169  RH  090%=      5-min Rain = 0
KCR1 241234Z 18005KT 19/17 A2982 RMK A01 T01860169  RH  090%=      5-min Rain = 0
KCR1 241235Z 18006KT 19/17 A2982 RMK A01 T01860169  RH  089%=      5-min Rain = 0
KCR1 241236Z 18006KT 19/17 A2982 RMK A01 T01870170  RH  090%=      5-min Rain = 0
KCR1 241237Z 18006KT 19/17 A2982 RMK A01 T01870170  RH  090%=      5-min Rain = 0
KCR1 241238Z 18005KT 19/17 A2982 RMK A01 T01870170  RH  089%=      5-min Rain = 0
KCR1 241239Z 19006KT 19/17 A2982 RMK A01 T01880171  RH  090%=      5-min Rain = 0
KCR1 241240Z 19006KT 19/17 A2983 RMK A01 T01880171  RH  090%=      5-min Rain = 0
KCR1 241241Z 19006KT 19/17 A2983 RMK A01 T01880171  RH  090%=      5-min Rain = 0
KCR1 241242Z 19006KT 19/17 A2983 RMK A01 T01880171  RH  090%=      5-min Rain = 0
KCR1 241243Z 19006KT 19/17 A2983 RMK A01 T01880171  RH  090%=      5-min Rain = 0
KCR1 241244Z 19006KT 19/17 A2983 RMK A01 T01880171  RH  090%=      5-min Rain = 0
KCR1 241245Z 19006KT 19/17 A2983 RMK A01 T01890172  RH  090%=      5-min Rain = 0
KCR1 241246Z 19005KT 19/17 A2983 RMK A01 T01890172  RH  090%=      5-min Rain = 0
KCR1 241247Z 19005KT 19/17 A2983 RMK A01 T01890173  RH  090%=      5-min Rain = 0
KCR1 241248Z 19005KT 19/17 A2983 RMK A01 T01890173  RH  090%=      5-min Rain = 0
KCR1 241249Z 19006KT 19/17 A2983 RMK A01 T01890173  RH  090%=      5-min Rain = 0
KCR1 241250Z 19006KT 19/17 A2983 RMK A01 T01900173  RH  090%=      5-min Rain = 0
KCR1 241251Z 19007KT 19/17 A2983 RMK A01 T01900173  RH  090%=      5-min Rain = 0
KCR1 241252Z 18006KT 19/17 A2983 RMK A01 T01900172  RH  089%=      5-min Rain = 0
KCR1 241253Z 18005KT 19/17 A2983 RMK A01 T01910173  RH  089%=      5-min Rain = 0
KCR1 241254Z 18006KT 19/17 A2983 RMK A01 T01910173  RH  089%=      5-min Rain = 0
KCR1 241255Z 18006KT 19/17 A2983 RMK A01 T01910173  RH  089%=      5-min Rain = 0
KCR1 241256Z 19005KT 19/17 A2983 RMK A01 T01920174  RH  090%=      5-min Rain = 0
KCR1 241257Z 18005KT 19/18 A2983 RMK A01 T01920175  RH  090%=      5-min Rain = 0
KCR1 241258Z 18004KT 19/17 A2983 RMK A01 T01930174  RH  089%=      5-min Rain = 0
KCR1 241259Z 18005KT 19/17 A2983 RMK A01 T01930174  RH  089%=      5-min Rain = 0
KCR1 241300Z 18005KT 19/17 A2983 RMK A01 T01940174  RH  089%=      5-min Rain = 0
KCR1 241301Z 18005KT 20/18 A2983 RMK A01 T01950175  RH  088%=      5-min Rain = 0
KCR1 241302Z 18005KT 20/18 A2983 RMK A01 T01950176  RH  088%=      5-min Rain = 0
KCR1 241303Z 18005KT 20/18 A2983 RMK A01 T01970177  RH  088%=      5-min Rain = 0
KCR1 241304Z 18005KT 20/18 A2984 RMK A01 T01980177  RH  088%=      5-min Rain = 0
KCR1 241305Z 18005KT 20/18 A2984 RMK A01 T01980176  RH  087%=      5-min Rain = 0
KCR1 241306Z 18005KT 20/18 A2984 RMK A01 T01990177  RH  087%=      5-min Rain = 0
KCR1 241307Z 18005KT 20/18 A2984 RMK A01 T01990177  RH  087%=      5-min Rain = 0
KCR1 241308Z 18005KT 20/18 A2984 RMK A01 T01990175  RH  086%=      5-min Rain = 0
KCR1 241309Z 18005KT 20/18 A2984 RMK A01 T01990176  RH  087%=      5-min Rain = 0
KCR1 241310Z 18005KT 20/18 A2984 RMK A01 T01990178  RH  088%=      5-min Rain = 0
KCR1 241311Z 18005KT 20/18 A2984 RMK A01 T02000179  RH  088%=      5-min Rain = 0
KCR1 241312Z 19006KT 20/18 A2984 RMK A01 T02010179  RH  087%=      5-min Rain = 0
KCR1 241313Z 18006KT 20/18 A2984 RMK A01 T02020178  RH  086%=      5-min Rain = 0
KCR1 241314Z 17006KT 20/18 A2984 RMK A01 T02030178  RH  086%=      5-min Rain = 0
KCR1 241315Z 17007KT 20/18 A2984 RMK A01 T02030178  RH  086%=      5-min Rain = 0
KCR1 241316Z 18006KT 20/18 A2984 RMK A01 T02040178  RH  085%=      5-min Rain = 0
KCR1 241317Z 18006KT 21/18 A2984 RMK A01 T02050180  RH  085%=      5-min Rain = 0
KCR1 241318Z 17007KT 21/18 A2984 RMK A01 T02060180  RH  085%=      5-min Rain = 0
KCR1 241319Z 17007KT 21/18 A2984 RMK A01 T02070181  RH  085%=      5-min Rain = 0
KCR1 241320Z 17007KT 21/18 A2984 RMK A01 T02090181  RH  084%=      5-min Rain = 0
KCR1 241321Z 17007KT 21/18 A2984 RMK A01 T02090182  RH  084%=      5-min Rain = 0
KCR1 241322Z 18007KT 21/18 A2984 RMK A01 T02100182  RH  084%=      5-min Rain = 0
KCR1 241323Z 18008KT 21/18 A2984 RMK A01 T02110182  RH  084%=      5-min Rain = 0
KCR1 241324Z 18007KT 21/18 A2984 RMK A01 T02110182  RH  083%=      5-min Rain = 0
KCR1 241325Z 18009KT 21/18 A2984 RMK A01 T02110182  RH  084%=      5-min Rain = 0
KCR1 241326Z 18007KT 21/18 A2984 RMK A01 T02110182  RH  084%=      5-min Rain = 0
KCR1 241327Z 18008KT 21/18 A2983 RMK A01 T02120184  RH  084%=      5-min Rain = 0
KCR1 241328Z 18010KT 21/19 A2984 RMK A01 T02130185  RH  084%=      5-min Rain = 0
KCR1 241329Z 18010KT 21/18 A2983 RMK A01 T02130182  RH  083%=      5-min Rain = 0
KCR1 241330Z 17011KT 21/18 A2984 RMK A01 T02120184  RH  084%=      5-min Rain = 0
KCR1 241331Z 17011KT 21/18 A2984 RMK A01 T02120184  RH  084%=      5-min Rain = 0
KCR1 241332Z 18011KT 21/18 A2983 RMK A01 T02120183  RH  084%=      5-min Rain = 0
KCR1 241333Z 19011KT 21/19 A2983 RMK A01 T02110185  RH  085%=      5-min Rain = 0
KCR1 241334Z 18009KT 21/19 A2983 RMK A01 T02120186  RH  085%=      5-min Rain = 0
KCR1 241335Z 17009KT 21/19 A2983 RMK A01 T02120186  RH  085%=      5-min Rain = 0
KCR1 241336Z 17011KT 21/19 A2983 RMK A01 T02120186  RH  085%=      5-min Rain = 0
KCR1 241337Z 18010KT 21/19 A2983 RMK A01 T02120187  RH  085%=      5-min Rain = 0
KCR1 241338Z 18011KT 21/19 A2983 RMK A01 T02120186  RH  085%=      5-min Rain = 0
KCR1 241339Z 18011KT 21/19 A2983 RMK A01 T02120186  RH  085%=      5-min Rain = 0
KCR1 241340Z 19011KT 21/19 A2983 RMK A01 T02120186  RH  085%=      5-min Rain = 0
KCR1 241341Z 18010KT 21/19 A2983 RMK A01 T02130187  RH  085%=      5-min Rain = 0
KCR1 241342Z 17009KT 21/19 A2984 RMK A01 T02130189  RH  086%=      5-min Rain = 0
KCR1 241343Z 18010KT 21/19 A2984 RMK A01 T02140188  RH  085%=      5-min Rain = 0
KCR1 241344Z 18012KT 22/19 A2984 RMK A01 T02150189  RH  085%=      5-min Rain = 0
KCR1 241345Z 18012KT 22/19 A2984 RMK A01 T02150190  RH  085%=      5-min Rain = 0
KCR1 241346Z 18012KT 22/19 A2984 RMK A01 T02150188  RH  085%=      5-min Rain = 0
KCR1 241347Z 18013KT 22/19 A2983 RMK A01 T02150189  RH  085%=      5-min Rain = 0
KCR1 241348Z 18013KT 22/19 A2984 RMK A01 T02150189  RH  085%=      5-min Rain = 0
KCR1 241349Z 17011KT 21/19 A2984 RMK A01 T02140189  RH  085%=      5-min Rain = 0
KCR1 241350Z 17012KT 21/19 A2984 RMK A01 T02140190  RH  086%=      5-min Rain = 0
KCR1 241351Z 17014KT 22/19 A2984 RMK A01 T02150189  RH  085%=      5-min Rain = 0
KCR1 241352Z 17013KT 22/19 A2984 RMK A01 T02150190  RH  085%=      5-min Rain = 0
KCR1 241353Z 17012KT 22/19 A2984 RMK A01 T02160190  RH  085%=      5-min Rain = 0
KCR1 241354Z 18011KT 22/19 A2984 RMK A01 T02150190  RH  085%=      5-min Rain = 0
KCR1 241355Z 18012KT 22/19 A2984 RMK A01 T02160191  RH  086%=      5-min Rain = 0
KCR1 241356Z 18012KT 22/19 A2984 RMK A01 T02160190  RH  085%=      5-min Rain = 0
KCR1 241357Z 18013KT 22/19 A2984 RMK A01 T02170190  RH  085%=      5-min Rain = 0
KCR1 241358Z 17012KT 22/19 A2984 RMK A01 T02160190  RH  085%=      5-min Rain = 0
KCR1 241359Z 18011KT 22/19 A2984 RMK A01 T02160190  RH  085%=      5-min Rain = 0
KCR1 241400Z 18010KT 22/19 A2984 RMK A01 T02170191  RH  085%=      5-min Rain = 0
KCR1 241401Z 20009KT 22/19 A2984 RMK A01 T02180192  RH  086%=      5-min Rain = 0
KCR1 241402Z 19011KT 22/19 A2984 RMK A01 T02180192  RH  085%=      5-min Rain = 0
KCR1 241403Z 18012KT 22/19 A2984 RMK A01 T02180192  RH  085%=      5-min Rain = 0
KCR1 241404Z 18013KT 22/19 A2984 RMK A01 T02180191  RH  084%=      5-min Rain = 0
KCR1 241405Z 18009KT 22/19 A2984 RMK A01 T02180191  RH  084%=      5-min Rain = 0
KCR1 241406Z 18010KT 22/19 A2984 RMK A01 T02190193  RH  085%=      5-min Rain = 0
KCR1 241407Z 18010KT 22/19 A2984 RMK A01 T02200193  RH  085%=      5-min Rain = 0
KCR1 241408Z 19010KT 22/19 A2984 RMK A01 T02220193  RH  084%=      5-min Rain = 0
KCR1 241409Z 18010KT 22/19 A2984 RMK A01 T02220194  RH  084%=      5-min Rain = 0
KCR1 241410Z 18009KT 22/19 A2984 RMK A01 T02230193  RH  083%=      5-min Rain = 0
KCR1 241411Z 19009KT 22/20 A2984 RMK A01 T02240197  RH  085%=      5-min Rain = 0
KCR1 241412Z 19010KT 23/20 A2984 RMK A01 T02260196  RH  083%=      5-min Rain = 0
KCR1 241413Z 18010KT 23/20 A2984 RMK A01 T02260195  RH  082%=      5-min Rain = 0
KCR1 241414Z 18010KT 23/20 A2984 RMK A01 T02260196  RH  083%=      5-min Rain = 0
KCR1 241415Z 18012KT 23/20 A2984 RMK A01 T02270195  RH  082%=      5-min Rain = 0
KCR1 241416Z 18012KT 23/20 A2984 RMK A01 T02270195  RH  082%=      5-min Rain = 0
KCR1 241417Z 18012KT 23/20 A2984 RMK A01 T02280196  RH  082%=      5-min Rain = 0
KCR1 241418Z 18010KT 23/20 A2984 RMK A01 T02290196  RH  081%=      5-min Rain = 0
KCR1 241419Z 18011KT 23/20 A2984 RMK A01 T02310198  RH  082%=      5-min Rain = 0
KCR1 241420Z 19012KT 23/20 A2984 RMK A01 T02320195  RH  080%=      5-min Rain = 0
KCR1 241421Z 18013KT 23/20 A2984 RMK A01 T02320195  RH  080%=      5-min Rain = 0
KCR1 241422Z 18012KT 23/19 A2984 RMK A01 T02310194  RH  080%=      5-min Rain = 0
KCR1 241423Z 18014KT 23/19 A2984 RMK A01 T02310194  RH  080%=      5-min Rain = 0
KCR1 241424Z 18012KT 23/19 A2984 RMK A01 T02310193  RH  079%=      5-min Rain = 0
KCR1 241425Z 17015KT 23/19 A2984 RMK A01 T02310194  RH  080%=      5-min Rain = 0
KCR1 241426Z 18014KT 23/20 A2984 RMK A01 T02330195  RH  079%=      5-min Rain = 0
KCR1 241427Z 18015KT 23/19 A2984 RMK A01 T02330192  RH  078%=      5-min Rain = 0
KCR1 241428Z 17014KT 23/19 A2984 RMK A01 T02330193  RH  078%=      5-min Rain = 0
KCR1 241429Z 18011KT 23/19 A2984 RMK A01 T02340194  RH  079%=      5-min Rain = 0
KCR1 241430Z 19015KT 24/20 A2984 RMK A01 T02350195  RH  078%=      5-min Rain = 0
KCR1 241431Z 19015KT 24/19 A2984 RMK A01 T02360194  RH  078%=      5-min Rain = 0
KCR1 241432Z 19014KT 24/19 A2984 RMK A01 T02350194  RH  078%=      5-min Rain = 0
KCR1 241433Z 19015KT 24/19 A2984 RMK A01 T02350194  RH  078%=      5-min Rain = 0
KCR1 241434Z 19016KT 24/19 A2984 RMK A01 T02360193  RH  077%=      5-min Rain = 0
KCR1 241435Z 20015KT 24/19 A2984 RMK A01 T02360193  RH  077%=      5-min Rain = 0
KCR1 241436Z 19012KT 24/20 A2984 RMK A01 T02360195  RH  078%=      5-min Rain = 0
KCR1 241437Z 18012KT 24/20 A2984 RMK A01 T02370195  RH  077%=      5-min Rain = 0
KCR1 241438Z 18011KT 24/20 A2984 RMK A01 T02380199  RH  078%=      5-min Rain = 0
KCR1 241439Z 18012KT 24/20 A2984 RMK A01 T02410195  RH  075%=      5-min Rain = 0
KCR1 241440Z 17014KT 24/20 A2983 RMK A01 T02420196  RH  075%=      5-min Rain = 0
KCR1 241441Z 18016KT 24/19 A2983 RMK A01 T02420192  RH  074%=      5-min Rain = 0
KCR1 241442Z 18016KT 24/19 A2983 RMK A01 T02410191  RH  074%=      5-min Rain = 0
KCR1 241443Z 18015KT 24/19 A2984 RMK A01 T02390190  RH  074%=      5-min Rain = 0
KCR1 241444Z 17015KT 24/19 A2983 RMK A01 T02390192  RH  075%=      5-min Rain = 0
KCR1 241445Z 18012KT 24/19 A2983 RMK A01 T02400193  RH  075%=      5-min Rain = 0
KCR1 241446Z 18015KT 24/19 A2983 RMK A01 T02420192  RH  074%=      5-min Rain = 0
KCR1 241447Z 18014KT 24/19 A2983 RMK A01 T02420192  RH  074%=      5-min Rain = 0
KCR1 241448Z 17014KT 24/19 A2983 RMK A01 T02430194  RH  074%=      5-min Rain = 0
KCR1 241449Z 18013KT 24/19 A2983 RMK A01 T02430192  RH  073%=      5-min Rain = 0
KCR1 241450Z 17014KT 24/19 A2983 RMK A01 T02440194  RH  073%=      5-min Rain = 0
KCR1 241451Z 18015KT 25/19 A2983 RMK A01 T02450193  RH  072%=      5-min Rain = 0
KCR1 241452Z 17013KT 25/19 A2983 RMK A01 T02450194  RH  073%=      5-min Rain = 0
KCR1 241453Z 17015KT 25/19 A2983 RMK A01 T02450192  RH  072%=      5-min Rain = 0
KCR1 241454Z 18015KT 25/19 A2983 RMK A01 T02460192  RH  072%=      5-min Rain = 0
KCR1 241455Z 18014KT 25/19 A2983 RMK A01 T02450192  RH  072%=      5-min Rain = 0
KCR1 241456Z 17016KT 25/19 A2983 RMK A01 T02450192  RH  072%=      5-min Rain = 0
KCR1 241457Z 17018KT 25/19 A2982 RMK A01 T02460190  RH  071%=      5-min Rain = 0
KCR1 241458Z 18017KT 25/19 A2982 RMK A01 T02450188  RH  071%=      5-min Rain = 0
KCR1 241459Z 18014KT 24/19 A2982 RMK A01 T02440189  RH  072%=      5-min Rain = 0
KCR1 241500Z 17016KT 24/19 A2982 RMK A01 T02440189  RH  071%=      5-min Rain = 0
KCR1 241501Z 17015KT 25/19 A2982 RMK A01 T02450189  RH  071%=      5-min Rain = 0
KCR1 241502Z 18014KT 25/19 A2982 RMK A01 T02460191  RH  072%=      5-min Rain = 0
KCR1 241503Z 17014KT 25/19 A2982 RMK A01 T02480191  RH  071%=      5-min Rain = 0
KCR1 241504Z 18014KT 25/20 A2982 RMK A01 T02490195  RH  072%=      5-min Rain = 0
KCR1 241505Z 18015KT 25/19 A2982 RMK A01 T02500192  RH  070%=      5-min Rain = 0
KCR1 241506Z 18014KT 25/19 A2982 RMK A01 T02500192  RH  070%=      5-min Rain = 0
KCR1 241507Z 17014KT 25/19 A2982 RMK A01 T02510191  RH  069%=      5-min Rain = 0
KCR1 241508Z 18014KT 25/19 A2982 RMK A01 T02520193  RH  069%=      5-min Rain = 0
KCR1 241509Z 17014KT 25/19 A2982 RMK A01 T02530189  RH  067%=      5-min Rain = 0
KCR1 241510Z 17016KT 25/19 A2982 RMK A01 T02540187  RH  067%=      5-min Rain = 0
KCR1 241511Z 18017KT 25/19 A2982 RMK A01 T02540186  RH  066%=      5-min Rain = 0
KCR1 241512Z 18015KT 25/19 A2982 RMK A01 T02540185  RH  066%=      5-min Rain = 0
KCR1 241513Z 18017KT 25/19 A2982 RMK A01 T02540186  RH  066%=      5-min Rain = 0
KCR1 241514Z 18013G18KT 25/18 A2982 RMK A01 T02540184  RH  065%=      5-min Rain = 0
KCR1 241515Z 19011KT 26/19 A2983 RMK A01 T02550188  RH  066%=      5-min Rain = 0
KCR1 241516Z 19013KT 26/19 A2983 RMK A01 T02570187  RH  065%=      5-min Rain = 0
KCR1 241517Z 19011KT 26/19 A2983 RMK A01 T02590190  RH  066%=      5-min Rain = 0
KCR1 241518Z 20015KT 26/19 A2983 RMK A01 T02600185  RH  063%=      5-min Rain = 0
KCR1 241519Z 20012KT 26/19 A2983 RMK A01 T02600187  RH  064%=      5-min Rain = 0
KCR1 241520Z 20011KT 26/19 A2983 RMK A01 T02600186  RH  063%=      5-min Rain = 0
KCR1 241521Z 20011KT 26/19 A2983 RMK A01 T02610185  RH  063%=      5-min Rain = 0
KCR1 241522Z 19013KT 26/18 A2983 RMK A01 T02610181  RH  061%=      5-min Rain = 0
KCR1 241523Z 20009KT 26/19 A2983 RMK A01 T02620186  RH  063%=      5-min Rain = 0
KCR1 241524Z 18012KT 26/18 A2983 RMK A01 T02640182  RH  061%=      5-min Rain = 0
KCR1 241525Z 18012G17KT 26/18 A2983 RMK A01 T02640177  RH  059%=      5-min Rain = 0
KCR1 241526Z 19014KT 26/18 A2983 RMK A01 T02640179  RH  060%=      5-min Rain = 0
KCR1 241527Z 19012KT 26/18 A2983 RMK A01 T02630179  RH  060%=      5-min Rain = 0
KCR1 241528Z 18015KT 26/18 A2983 RMK A01 T02630178  RH  060%=      5-min Rain = 0
KCR1 241529Z 19015KT 26/18 A2983 RMK A01 T02640175  RH  058%=      5-min Rain = 0
KCR1 241530Z 18013KT 26/18 A2983 RMK A01 T02640179  RH  060%=      5-min Rain = 0
KCR1 241531Z 18014KT 26/17 A2983 RMK A01 T02640174  RH  057%=      5-min Rain = 0
KCR1 241532Z 18013KT 27/17 A2983 RMK A01 T02650174  RH  057%=      5-min Rain = 0
KCR1 241533Z 18015KT 27/18 A2983 RMK A01 T02650178  RH  059%=      5-min Rain = 0
KCR1 241534Z 18016KT 27/17 A2983 RMK A01 T02660172  RH  056%=      5-min Rain = 0
KCR1 241535Z 19013KT 27/17 A2983 RMK A01 T02650170  RH  056%=      5-min Rain = 0
KCR1 241536Z 18013KT 27/17 A2983 RMK A01 T02650173  RH  057%=      5-min Rain = 0
KCR1 241537Z 19013KT 27/18 A2983 RMK A01 T02670177  RH  058%=      5-min Rain = 0
KCR1 241538Z 19015KT 27/18 A2983 RMK A01 T02680177  RH  057%=      5-min Rain = 0
KCR1 241539Z 17017KT 27/17 A2983 RMK A01 T02690174  RH  056%=      5-min Rain = 0
KCR1 241540Z 18014KT 27/17 A2983 RMK A01 T02690174  RH  056%=      5-min Rain = 0
KCR1 241541Z 18012KT 27/18 A2983 RMK A01 T02690176  RH  057%=      5-min Rain = 0
KCR1 241542Z 18013KT 27/18 A2983 RMK A01 T02700175  RH  056%=      5-min Rain = 0
KCR1 241543Z 20016G21KT 27/18 A2983 RMK A01 T02720179  RH  057%=      5-min Rain = 0
KCR1 241544Z 18022KT 27/17 A2982 RMK A01 T02720169  RH  053%=      5-min Rain = 0
KCR1 241545Z 18017KT 27/17 A2983 RMK A01 T02700168  RH  053%=      5-min Rain = 0
KCR1 241546Z 19019G24KT 27/17 A2983 RMK A01 T02690168  RH  054%=      5-min Rain = 0
KCR1 241547Z 19019KT 27/17 A2983 RMK A01 T02680168  RH  054%=      5-min Rain = 0
KCR1 241548Z 19017KT 27/17 A2983 RMK A01 T02670170  RH  055%=      5-min Rain = 0
KCR1 241549Z 21017KT 27/17 A2982 RMK A01 T02670170  RH  055%=      5-min Rain = 0
KCR1 241550Z 20014KT 27/18 A2982 RMK A01 T02680175  RH  057%=      5-min Rain = 0
KCR1 241551Z 20015KT 27/18 A2982 RMK A01 T02680177  RH  057%=      5-min Rain = 0
KCR1 241552Z 20013KT 27/18 A2982 RMK A01 T02690178  RH  057%=      5-min Rain = 0
KCR1 241553Z 18016KT 27/18 A2982 RMK A01 T02700176  RH  056%=      5-min Rain = 0
KCR1 241554Z 18018KT 27/18 A2982 RMK A01 T02710175  RH  056%=      5-min Rain = 0
KCR1 241555Z 19020KT 27/17 A2982 RMK A01 T02730173  RH  055%=      5-min Rain = 0
KCR1 241556Z 20020KT 27/17 A2982 RMK A01 T02700169  RH  054%=      5-min Rain = 0
KCR1 241557Z 20018KT 27/17 A2982 RMK A01 T02680170  RH  055%=      5-min Rain = 0
KCR1 241558Z 20015KT 27/17 A2982 RMK A01 T02680174  RH  057%=      5-min Rain = 0
KCR1 241559Z 18017KT 27/18 A2982 RMK A01 T02690175  RH  056%=      5-min Rain = 0
KCR1 241600Z 19016KT 27/17 A2982 RMK A01 T02710170  RH  054%=      5-min Rain = 0
KCR1 241601Z 20013KT 27/18 A2982 RMK A01 T02710176  RH  056%=      5-min Rain = 0
KCR1 241602Z 20015KT 27/18 A2982 RMK A01 T02720175  RH  055%=      5-min Rain = 0
KCR1 241603Z 19015KT 27/18 A2982 RMK A01 T02730176  RH  056%=      5-min Rain = 0
KCR1 241604Z 20015KT 27/18 A2982 RMK A01 T02730177  RH  056%=      5-min Rain = 0
KCR1 241605Z 18016G21KT 27/18 A2982 RMK A01 T02740177  RH  056%=      5-min Rain = 0
KCR1 241606Z 18018KT 28/17 A2982 RMK A01 T02750172  RH  053%=      5-min Rain = 0
KCR1 241607Z 18018G23KT 27/17 A2982 RMK A01 T02740174  RH  054%=      5-min Rain = 0
KCR1 241608Z 19021KT 27/17 A2982 RMK A01 T02740168  RH  052%=      5-min Rain = 0
KCR1 241609Z 19018KT 27/17 A2982 RMK A01 T02740170  RH  053%=      5-min Rain = 0
KCR1 241610Z 18019KT 27/17 A2982 RMK A01 T02740168  RH  052%=      5-min Rain = 0
KCR1 241611Z 18015KT 27/17 A2982 RMK A01 T02730166  RH  052%=      5-min Rain = 0
KCR1 241612Z 20018KT 27/17 A2982 RMK A01 T02720169  RH  053%=      5-min Rain = 0
KCR1 241613Z 19019KT 27/17 A2982 RMK A01 T02720166  RH  052%=      5-min Rain = 0
KCR1 241614Z 20016G21KT 27/17 A2982 RMK A01 T02720169  RH  053%=      5-min Rain = 0
KCR1 241615Z 20012KT 27/18 A2983 RMK A01 T02730175  RH  055%=      5-min Rain = 0
KCR1 241616Z 19013KT 28/18 A2983 RMK A01 T02760175  RH  054%=      5-min Rain = 0
KCR1 241617Z 19016G22KT 28/17 A2983 RMK A01 T02760173  RH  053%=      5-min Rain = 0
KCR1 241618Z 19016KT 28/17 A2983 RMK A01 T02760171  RH  053%=      5-min Rain = 0
KCR1 241619Z 20017G22KT 28/17 A2983 RMK A01 T02760172  RH  053%=      5-min Rain = 0
KCR1 241620Z 19017KT 28/17 A2983 RMK A01 T02760172  RH  053%=      5-min Rain = 0
KCR1 241621Z 20020KT 28/17 A2983 RMK A01 T02770171  RH  052%=      5-min Rain = 0
KCR1 241622Z 20018KT 28/17 A2983 RMK A01 T02770168  RH  052%=      5-min Rain = 0
KCR1 241623Z 20015KT 28/17 A2983 RMK A01 T02760171  RH  053%=      5-min Rain = 0
KCR1 241624Z 20017G24KT 28/17 A2983 RMK A01 T02760170  RH  053%=      5-min Rain = 0
KCR1 241625Z 20021KT 28/17 A2983 RMK A01 T02770169  RH  052%=      5-min Rain = 0
KCR1 241626Z 20017G23KT 28/17 A2983 RMK A01 T02760169  RH  052%=      5-min Rain = 0
KCR1 241627Z 20015KT 28/17 A2983 RMK A01 T02770171  RH  053%=      5-min Rain = 0
KCR1 241628Z 20017KT 28/17 A2983 RMK A01 T02780171  RH  052%=      5-min Rain = 0
KCR1 241629Z 20017KT 28/17 A2983 RMK A01 T02780171  RH  052%=      5-min Rain = 0
KCR1 241630Z 20015G20KT 28/18 A2983 RMK A01 T02780175  RH  053%=      5-min Rain = 0
KCR1 241631Z 21016KT 28/18 A2983 RMK A01 T02800175  RH  053%=      5-min Rain = 0
KCR1 241632Z 20015KT 28/17 A2983 RMK A01 T02810172  RH  052%=      5-min Rain = 0
KCR1 241633Z 21015G21KT 28/17 A2983 RMK A01 T02810172  RH  052%=      5-min Rain = 0
KCR1 241634Z 19015G20KT 28/17 A2983 RMK A01 T02790170  RH  052%=      5-min Rain = 0
KCR1 241635Z 18015KT 28/17 A2983 RMK A01 T02790173  RH  053%=      5-min Rain = 0
KCR1 241636Z 19018KT 28/17 A2983 RMK A01 T02820174  RH  052%=      5-min Rain = 0
KCR1 241637Z 19017KT 28/17 A2983 RMK A01 T02810169  RH  051%=      5-min Rain = 0
KCR1 241638Z 19016KT 28/17 A2983 RMK A01 T02790170  RH  052%=      5-min Rain = 0
KCR1 241639Z 19016KT 28/17 A2983 RMK A01 T02790172  RH  052%=      5-min Rain = 0
KCR1 241640Z 18018KT 28/17 A2983 RMK A01 T02800170  RH  051%=      5-min Rain = 0
KCR1 241641Z 19017G25KT 28/17 A2983 RMK A01 T02790172  RH  052%=      5-min Rain = 0
KCR1 241642Z 20021KT 28/17 A2983 RMK A01 T02790168  RH  051%=      5-min Rain = 0
KCR1 241643Z 20019KT 28/17 A2983 RMK A01 T02790170  RH  051%=      5-min Rain = 0
KCR1 241644Z 21020KT 28/17 A2983 RMK A01 T02790169  RH  051%=      5-min Rain = 0
KCR1 241645Z 21019G24KT 28/17 A2983 RMK A01 T02790167  RH  051%=      5-min Rain = 0
KCR1 241646Z 20017KT 28/17 A2983 RMK A01 T02780167  RH  051%=      5-min Rain = 0
KCR1 241647Z 21021KT 28/17 A2983 RMK A01 T02780169  RH  051%=      5-min Rain = 0
KCR1 241648Z 21018KT 28/17 A2983 RMK A01 T02790167  RH  051%=      5-min Rain = 0
KCR1 241649Z 20018KT 28/17 A2983 RMK A01 T02780168  RH  051%=      5-min Rain = 0
KCR1 241650Z 19019G24KT 28/17 A2983 RMK A01 T02780168  RH  051%=      5-min Rain = 0
KCR1 241651Z 20019G24KT 28/17 A2983 RMK A01 T02790166  RH  050%=      5-min Rain = 0
KCR1 241652Z 20018G23KT 28/17 A2983 RMK A01 T02800170  RH  051%=      5-min Rain = 0
KCR1 241653Z 19017KT 28/17 A2983 RMK A01 T02810166  RH  050%=      5-min Rain = 0
KCR1 241654Z 20017KT 28/17 A2983 RMK A01 T02810169  RH  050%=      5-min Rain = 0
KCR1 241655Z 19017KT 28/17 A2983 RMK A01 T02820171  RH  051%=      5-min Rain = 0
KCR1 241656Z 19018KT 28/17 A2983 RMK A01 T02820171  RH  051%=      5-min Rain = 0
KCR1 241657Z 19014KT 28/17 A2983 RMK A01 T02820171  RH  051%=      5-min Rain = 0
KCR1 241658Z 18014KT 28/17 A2983 RMK A01 T02810172  RH  051%=      5-min Rain = 0
KCR1 241659Z 18016KT 28/17 A2983 RMK A01 T02810172  RH  051%=      5-min Rain = 0
KCR1 241700Z 18018KT 28/17 A2983 RMK A01 T02820172  RH  051%=      5-min Rain = 0
KCR1 241701Z 19017G22KT 28/17 A2983 RMK A01 T02820172  RH  051%=      5-min Rain = 0
KCR1 241702Z 18017KT 28/17 A2983 RMK A01 T02840174  RH  051%=      5-min Rain = 0
KCR1 241703Z 18016KT 29/17 A2983 RMK A01 T02850172  RH  050%=      5-min Rain = 0
KCR1 241704Z 18017KT 29/18 A2983 RMK A01 T02850176  RH  052%=      5-min Rain = 0
KCR1 241705Z 18018KT 29/17 A2983 RMK A01 T02860172  RH  050%=      5-min Rain = 0
KCR1 241706Z 19017KT 28/17 A2983 RMK A01 T02840172  RH  051%=      5-min Rain = 0
KCR1 241707Z 20016KT 28/17 A2983 RMK A01 T02840173  RH  051%=      5-min Rain = 0
KCR1 241708Z 19012KT 28/17 A2983 RMK A01 T02830171  RH  051%=      5-min Rain = 0
KCR1 241709Z 20010G16KT 28/18 A2983 RMK A01 T02830175  RH  052%=      5-min Rain = 0
KCR1 241710Z 20017KT 29/17 A2983 RMK A01 T02860173  RH  050%=      5-min Rain = 0
KCR1 241711Z 20015KT 29/17 A2983 RMK A01 T02860173  RH  050%=      5-min Rain = 0
KCR1 241712Z 20014KT 29/18 A2983 RMK A01 T02850176  RH  051%=      5-min Rain = 0
KCR1 241713Z 19012KT 29/18 A2983 RMK A01 T02850175  RH  051%=      5-min Rain = 0
KCR1 241714Z 19012KT 29/18 A2983 RMK A01 T02860177  RH  052%=      5-min Rain = 0
KCR1 241715Z 19012KT 29/18 A2983 RMK A01 T02880177  RH  051%=      5-min Rain = 0
KCR1 241716Z 18015KT 29/18 A2982 RMK A01 T02890175  RH  050%=      5-min Rain = 0
KCR1 241717Z 20015G20KT 29/18 A2983 RMK A01 T02890177  RH  051%=      5-min Rain = 0
KCR1 241718Z 19018KT 29/18 A2982 RMK A01 T02890176  RH  050%=      5-min Rain = 0
KCR1 241719Z 18015KT 29/18 A2982 RMK A01 T02880175  RH  050%=      5-min Rain = 0
KCR1 241720Z 19018KT 29/18 A2982 RMK A01 T02890179  RH  051%=      5-min Rain = 0
KCR1 241721Z 19017KT 29/17 A2982 RMK A01 T02900174  RH  050%=      5-min Rain = 0
KCR1 241722Z 19016KT 29/17 A2982 RMK A01 T02890173  RH  050%=      5-min Rain = 0
KCR1 241723Z 18015KT 29/17 A2982 RMK A01 T02880174  RH  050%=      5-min Rain = 0
KCR1 241724Z 19017KT 29/18 A2982 RMK A01 T02870176  RH  051%=      5-min Rain = 0
KCR1 241725Z 19013KT 29/18 A2982 RMK A01 T02890181  RH  052%=      5-min Rain = 0
KCR1 241726Z 20016G21KT 29/18 A2982 RMK A01 T02910178  RH  050%=      5-min Rain = 0
KCR1 241727Z 21017KT 29/18 A2982 RMK A01 T02910175  RH  050%=      5-min Rain = 0
KCR1 241728Z 19017G23KT 29/18 A2982 RMK A01 T02890181  RH  052%=      5-min Rain = 0
KCR1 241729Z 19018KT 29/17 A2982 RMK A01 T02910174  RH  049%=      5-min Rain = 0
KCR1 241730Z 19015KT 29/18 A2982 RMK A01 T02900176  RH  050%=      5-min Rain = 0
KCR1 241731Z 19016KT 29/18 A2982 RMK A01 T02900175  RH  050%=      5-min Rain = 0
KCR1 241732Z 18014KT 29/18 A2982 RMK A01 T02900179  RH  051%=      5-min Rain = 0
KCR1 241733Z 18013KT 29/18 A2982 RMK A01 T02900177  RH  050%=      5-min Rain = 0
KCR1 241734Z 19014KT 29/18 A2982 RMK A01 T02890177  RH  051%=      5-min Rain = 0
KCR1 241735Z 20013KT 29/18 A2981 RMK A01 T02880179  RH  052%=      5-min Rain = 0
KCR1 241736Z 21017KT 29/17 A2981 RMK A01 T02890173  RH  049%=      5-min Rain = 0
KCR1 241737Z 20014KT 29/18 A2981 RMK A01 T02890176  RH  051%=      5-min Rain = 0
KCR1 241738Z 19013KT 29/18 A2981 RMK A01 T02890177  RH  051%=      5-min Rain = 0
KCR1 241739Z 19015KT 29/18 A2981 RMK A01 T02900175  RH  050%=      5-min Rain = 0
KCR1 241740Z 19015KT 29/18 A2981 RMK A01 T02900178  RH  051%=      5-min Rain = 0
KCR1 241741Z 19014KT 29/18 A2981 RMK A01 T02920179  RH  051%=      5-min Rain = 0
KCR1 241742Z 19014G20KT 29/18 A2981 RMK A01 T02920179  RH  051%=      5-min Rain = 0
KCR1 241743Z 18016KT 29/18 A2981 RMK A01 T02910176  RH  050%=      5-min Rain = 0
KCR1 241744Z 18016KT 29/18 A2981 RMK A01 T02920179  RH  051%=      5-min Rain = 0
KCR1 241745Z 18017KT 29/18 A2981 RMK A01 T02920182  RH  051%=      5-min Rain = 0
KCR1 241746Z 18014KT 29/18 A2981 RMK A01 T02930179  RH  050%=      5-min Rain = 0
KCR1 241747Z 18017KT 29/18 A2981 RMK A01 T02930178  RH  050%=      5-min Rain = 0
KCR1 241748Z 19018KT 29/18 A2981 RMK A01 T02920179  RH  051%=      5-min Rain = 0
KCR1 241749Z 20016KT 29/18 A2981 RMK A01 T02920176  RH  050%=      5-min Rain = 0
KCR1 241750Z 19017KT 29/18 A2981 RMK A01 T02920176  RH  049%=      5-min Rain = 0
KCR1 241751Z 19017KT 29/18 A2981 RMK A01 T02920175  RH  049%=      5-min Rain = 0
KCR1 241752Z 19017KT 29/18 A2981 RMK A01 T02920176  RH  050%=      5-min Rain = 0
KCR1 241753Z 19020KT 29/17 A2981 RMK A01 T02930174  RH  049%=      5-min Rain = 0
KCR1 241754Z 18020KT 29/17 A2981 RMK A01 T02930173  RH  048%=      5-min Rain = 0
KCR1 241755Z 18017KT 29/17 A2981 RMK A01 T02920173  RH  049%=      5-min Rain = 0
KCR1 241756Z 17020KT 29/17 A298 RMK A01 T02920172  RH  048%=      5-min Rain = 0
KCR1 241757Z 17017KT 29/18 A298 RMK A01 T02920176  RH  050%=      5-min Rain = 0
KCR1 241758Z 17020KT 29/18 A298 RMK A01 T02940175  RH  049%=      5-min Rain = 0
KCR1 241759Z 17017KT 29/18 A298 RMK A01 T02940178  RH  050%=      5-min Rain = 0
KCR1 241800Z 17019G25KT 30/18 A298 RMK A01 T02950177  RH  049%=      5-min Rain = 0
KCR1 241801Z 17020G25KT 30/18 A298 RMK A01 T02950176  RH  049%=      5-min Rain = 0
KCR1 241802Z 18017KT 30/18 A298 RMK A01 T02950175  RH  049%=      5-min Rain = 0
KCR1 241803Z 20018G25KT 30/18 A298 RMK A01 T02950176  RH  049%=      5-min Rain = 0
KCR1 241804Z 19020KT 30/18 A298 RMK A01 T02960177  RH  049%=      5-min Rain = 0
KCR1 241805Z 20017KT 30/18 A298 RMK A01 T02960177  RH  049%=      5-min Rain = 0
KCR1 241806Z 19020KT 30/18 A298 RMK A01 T02960176  RH  048%=      5-min Rain = 0
KCR1 241807Z 20019KT 29/18 A298 RMK A01 T02940175  RH  049%=      5-min Rain = 0
KCR1 241808Z 20017KT 29/18 A298 RMK A01 T02930176  RH  049%=      5-min Rain = 0
KCR1 241809Z 19012KT 29/17 A298 RMK A01 T02930174  RH  049%=      5-min Rain = 0
KCR1 241810Z 18014G19KT 29/18 A298 RMK A01 T02940180  RH  050%=      5-min Rain = 0
KCR1 241811Z 19019KT 30/17 A298 RMK A01 T02960174  RH  048%=      5-min Rain = 0
KCR1 241812Z 20018KT 30/18 A298 RMK A01 T02960176  RH  049%=      5-min Rain = 0
KCR1 241813Z 19017KT 30/18 A298 RMK A01 T02970175  RH  048%=      5-min Rain = 0
KCR1 241814Z 18019KT 30/18 A2979 RMK A01 T02970175  RH  048%=      5-min Rain = 0
KCR1 241815Z 18016G21KT 30/18 A2979 RMK A01 T02980176  RH  048%=      5-min Rain = 0
KCR1 241816Z 19017KT 30/18 A2979 RMK A01 T02980176  RH  048%=      5-min Rain = 0
KCR1 241817Z 18016KT 30/17 A2979 RMK A01 T02980174  RH  047%=      5-min Rain = 0
KCR1 241818Z 19018KT 30/18 A2979 RMK A01 T02990177  RH  048%=      5-min Rain = 0
KCR1 241819Z 19021KT 30/17 A2979 RMK A01 T02990173  RH  047%=      5-min Rain = 0
KCR1 241820Z 19018KT 30/17 A2979 RMK A01 T02970174  RH  047%=      5-min Rain = 0
KCR1 241821Z 20017G22KT 30/18 A2979 RMK A01 T02970175  RH  048%=      5-min Rain = 0
KCR1 241822Z 19017KT 30/18 A2979 RMK A01 T02970177  RH  049%=      5-min Rain = 0
KCR1 241823Z 19017G22KT 30/18 A2979 RMK A01 T02990176  RH  048%=      5-min Rain = 0
KCR1 241824Z 19022KT 30/18 A2979 RMK A01 T02980177  RH  048%=      5-min Rain = 0
KCR1 241825Z 19020KT 30/18 A2979 RMK A01 T02970178  RH  049%=      5-min Rain = 0
KCR1 241826Z 19019KT 30/18 A2979 RMK A01 T02980178  RH  049%=      5-min Rain = 0
KCR1 241827Z 19018KT 30/18 A2979 RMK A01 T02980182  RH  050%=      5-min Rain = 0
KCR1 241828Z 19017KT 30/18 A2979 RMK A01 T03000181  RH  049%=      5-min Rain = 0
KCR1 241829Z 18017G22KT 30/18 A2979 RMK A01 T03010181  RH  049%=      5-min Rain = 0
KCR1 241830Z 18014KT 30/18 A2979 RMK A01 T03000179  RH  048%=      5-min Rain = 0
KCR1 241831Z 19013KT 30/18 A2979 RMK A01 T02990182  RH  050%=      5-min Rain = 0
KCR1 241832Z 20015G22KT 30/18 A2979 RMK A01 T03010182  RH  049%=      5-min Rain = 0
KCR1 241833Z 20017KT 30/18 A2978 RMK A01 T03030178  RH  047%=      5-min Rain = 0
KCR1 241834Z 19016KT 30/18 A2978 RMK A01 T03010178  RH  048%=      5-min Rain = 0
KCR1 241835Z 19018KT 30/18 A2978 RMK A01 T03010181  RH  048%=      5-min Rain = 0
KCR1 241836Z 18014KT 30/18 A2978 RMK A01 T03010181  RH  048%=      5-min Rain = 0
KCR1 241837Z 18014G19KT 30/18 A2978 RMK A01 T03000178  RH  048%=      5-min Rain = 0
KCR1 241838Z 17017G26KT 30/18 A2978 RMK A01 T03000183  RH  050%=      5-min Rain = 0
KCR1 241839Z 17017KT 30/19 A2978 RMK A01 T03010185  RH  050%=      5-min Rain = 0
KCR1 241840Z 18016G21KT 30/18 A2978 RMK A01 T03030184  RH  049%=      5-min Rain = 0
KCR1 241841Z 18015KT 30/18 A2978 RMK A01 T03030184  RH  049%=      5-min Rain = 0
KCR1 241842Z 18017KT 30/18 A2978 RMK A01 T03040182  RH  048%=      5-min Rain = 0
KCR1 241843Z 18016KT 30/18 A2978 RMK A01 T03030181  RH  048%=      5-min Rain = 0
KCR1 241844Z 19015G21KT 30/18 A2978 RMK A01 T03020180  RH  048%=      5-min Rain = 0
KCR1 241845Z 20019KT 30/18 A2978 RMK A01 T03020180  RH  048%=      5-min Rain = 0
KCR1 241846Z 20018KT 30/18 A2978 RMK A01 T03030183  RH  049%=      5-min Rain = 0
KCR1 241847Z 19021KT 30/18 A2978 RMK A01 T03040181  RH  048%=      5-min Rain = 0
KCR1 241848Z 19020KT 30/18 A2978 RMK A01 T03030178  RH  047%=      5-min Rain = 0
KCR1 241849Z 19016KT 30/18 A2978 RMK A01 T03010179  RH  048%=      5-min Rain = 0
KCR1 241850Z 19014KT 30/18 A2978 RMK A01 T03010182  RH  049%=      5-min Rain = 0
KCR1 241851Z 19015KT 30/18 A2978 RMK A01 T03020181  RH  048%=      5-min Rain = 0
KCR1 241852Z 18015KT 30/18 A2978 RMK A01 T03020181  RH  048%=      5-min Rain = 0
KCR1 241853Z 19014KT 30/19 A2978 RMK A01 T03020187  RH  050%=      5-min Rain = 0
KCR1 241854Z 18015KT 30/18 A2978 RMK A01 T03040183  RH  048%=      5-min Rain = 0
KCR1 241855Z 17015KT 30/18 A2978 RMK A01 T03040184  RH  049%=      5-min Rain = 0
KCR1 241856Z 18018KT 31/19 A2977 RMK A01 T03050185  RH  049%=      5-min Rain = 0
KCR1 241857Z 20015KT 31/19 A2978 RMK A01 T03060185  RH  049%=      5-min Rain = 0
KCR1 241858Z 19013KT 31/18 A2977 RMK A01 T03060182  RH  047%=      5-min Rain = 0
KCR1 241859Z 19019KT 31/18 A2977 RMK A01 T03060183  RH  048%=      5-min Rain = 0
KCR1 241900Z 18019KT 31/18 A2978 RMK A01 T03050181  RH  048%=      5-min Rain = 0
KCR1 241901Z 18018KT 30/18 A2977 RMK A01 T03030181  RH  048%=      5-min Rain = 0
KCR1 241902Z 18015KT 30/18 A2977 RMK A01 T03030184  RH  049%=      5-min Rain = 0
KCR1 241903Z 19015KT 30/19 A2977 RMK A01 T03040186  RH  049%=      5-min Rain = 0
KCR1 241904Z 20019G24KT 31/18 A2977 RMK A01 T03060184  RH  048%=      5-min Rain = 0
KCR1 241905Z 19017KT 31/18 A2977 RMK A01 T03050183  RH  048%=      5-min Rain = 0
KCR1 241906Z 20015KT 31/18 A2977 RMK A01 T03050184  RH  048%=      5-min Rain = 0
KCR1 241907Z 19016G21KT 31/18 A2977 RMK A01 T03050184  RH  048%=      5-min Rain = 0
KCR1 241908Z 18014KT 31/19 A2977 RMK A01 T03050188  RH  049%=      5-min Rain = 0
KCR1 241909Z 18017KT 31/19 A2977 RMK A01 T03080189  RH  049%=      5-min Rain = 0
KCR1 241910Z 18017KT 31/19 A2977 RMK A01 T03080186  RH  048%=      5-min Rain = 0
KCR1 241911Z 18015KT 31/19 A2977 RMK A01 T03060186  RH  049%=      5-min Rain = 0
KCR1 241912Z 19019KT 31/19 A2977 RMK A01 T03050185  RH  049%=      5-min Rain = 0
KCR1 241913Z 20017KT 30/19 A2977 RMK A01 T03040187  RH  049%=      5-min Rain = 0
KCR1 241914Z 19016KT 31/19 A2977 RMK A01 T03070188  RH  049%=      5-min Rain = 0
KCR1 241915Z 19015KT 31/19 A2977 RMK A01 T03070185  RH  048%=      5-min Rain = 0
KCR1 241916Z 19019KT 31/19 A2976 RMK A01 T03060187  RH  049%=      5-min Rain = 0
KCR1 241917Z 18016G23KT 31/19 A2976 RMK A01 T03060186  RH  049%=      5-min Rain = 0
KCR1 241918Z 19020KT 31/19 A2976 RMK A01 T03060190  RH  050%=      5-min Rain = 0
KCR1 241919Z 19019KT 31/19 A2976 RMK A01 T03090186  RH  048%=      5-min Rain = 0
KCR1 241920Z 19017KT 31/19 A2976 RMK A01 T03090186  RH  048%=      5-min Rain = 0
KCR1 241921Z 19015KT 31/18 A2976 RMK A01 T03060183  RH  048%=      5-min Rain = 0
KCR1 241922Z 19017KT 31/19 A2976 RMK A01 T03050186  RH  049%=      5-min Rain = 0
KCR1 241923Z 20019G24KT 31/19 A2976 RMK A01 T03060187  RH  049%=      5-min Rain = 0
KCR1 241924Z 20019KT 31/18 A2976 RMK A01 T03080184  RH  048%=      5-min Rain = 0
KCR1 241925Z 20018G23KT 31/19 A2976 RMK A01 T03070186  RH  049%=      5-min Rain = 0
KCR1 241926Z 19018KT 31/19 A2976 RMK A01 T03080185  RH  048%=      5-min Rain = 0
KCR1 241927Z 21016KT 31/19 A2976 RMK A01 T03090189  RH  049%=      5-min Rain = 0
KCR1 241928Z 20014KT 31/19 A2976 RMK A01 T03110187  RH  048%=      5-min Rain = 0
KCR1 241929Z 21013KT 31/19 A2976 RMK A01 T03110189  RH  048%=      5-min Rain = 0
KCR1 241930Z 20014KT 31/19 A2976 RMK A01 T03110190  RH  049%=      5-min Rain = 0
KCR1 241931Z 20013KT 31/19 A2976 RMK A01 T03120189  RH  048%=      5-min Rain = 0
KCR1 241932Z 18012KT 31/19 A2976 RMK A01 T03110192  RH  049%=      5-min Rain = 0
KCR1 241933Z 18013KT 31/19 A2976 RMK A01 T03130192  RH  049%=      5-min Rain = 0
KCR1 241934Z 17013KT 31/19 A2976 RMK A01 T03130190  RH  048%=      5-min Rain = 0
KCR1 241935Z 17014KT 31/19 A2976 RMK A01 T03100189  RH  049%=      5-min Rain = 0
KCR1 241936Z 18013KT 31/19 A2976 RMK A01 T03080189  RH  049%=      5-min Rain = 0
KCR1 241937Z 20017KT 31/19 A2975 RMK A01 T03080190  RH  049%=      5-min Rain = 0
KCR1 241938Z 19015KT 31/19 A2976 RMK A01 T03100190  RH  049%=      5-min Rain = 0
KCR1 241939Z 19015KT 31/19 A2975 RMK A01 T03100191  RH  049%=      5-min Rain = 0
KCR1 241940Z 20014KT 31/19 A2975 RMK A01 T03110188  RH  048%=      5-min Rain = 0
KCR1 241941Z 19015KT 31/19 A2975 RMK A01 T03110189  RH  048%=      5-min Rain = 0
KCR1 241942Z 18014KT 31/19 A2975 RMK A01 T03110191  RH  049%=      5-min Rain = 0
KCR1 241943Z 21012KT 31/20 A2975 RMK A01 T03130195  RH  050%=      5-min Rain = 0
KCR1 241944Z 21013KT 31/19 A2975 RMK A01 T03130188  RH  047%=      5-min Rain = 0
KCR1 241945Z 20010KT 31/19 A2975 RMK A01 T03120190  RH  048%=      5-min Rain = 0
KCR1 241946Z 18014KT 31/20 A2975 RMK A01 T03130196  RH  050%=      5-min Rain = 0
KCR1 241947Z 19013KT 31/19 A2975 RMK A01 T03140191  RH  048%=      5-min Rain = 0
KCR1 241948Z 19016KT 31/19 A2975 RMK A01 T03140192  RH  048%=      5-min Rain = 0
KCR1 241949Z 18014KT 31/19 A2975 RMK A01 T03130189  RH  048%=      5-min Rain = 0
KCR1 241950Z 18017KT 31/19 A2975 RMK A01 T03080190  RH  049%=      5-min Rain = 0
KCR1 241951Z 17018KT 31/19 A2975 RMK A01 T03080189  RH  049%=      5-min Rain = 0
KCR1 241952Z 18015KT 31/19 A2975 RMK A01 T03070189  RH  050%=      5-min Rain = 0
KCR1 241953Z 19018KT 31/19 A2975 RMK A01 T03080190  RH  050%=      5-min Rain = 0
KCR1 241954Z 18015KT 31/19 A2975 RMK A01 T03100190  RH  049%=      5-min Rain = 0
KCR1 241955Z 19016KT 31/19 A2975 RMK A01 T03120192  RH  049%=      5-min Rain = 0
KCR1 241956Z 20017KT 31/19 A2975 RMK A01 T03140189  RH  048%=      5-min Rain = 0
KCR1 241957Z 20016KT 32/19 A2975 RMK A01 T03150188  RH  047%=      5-min Rain = 0
KCR1 241958Z 21013G18KT 31/19 A2975 RMK A01 T03140187  RH  047%=      5-min Rain = 0
KCR1 241959Z 21013KT 31/19 A2975 RMK A01 T03120188  RH  048%=      5-min Rain = 0
KCR1 242000Z 21015KT 31/19 A2975 RMK A01 T03120191  RH  048%=      5-min Rain = 0
KCR1 242001Z 18015KT 32/20 A2975 RMK A01 T03160196  RH  049%=      5-min Rain = 0
KCR1 242002Z 18013KT 32/19 A2975 RMK A01 T03170192  RH  048%=      5-min Rain = 0
KCR1 242003Z 18012KT 31/19 A2975 RMK A01 T03140190  RH  048%=      5-min Rain = 0
KCR1 242004Z 18013G21KT 31/19 A2975 RMK A01 T03130192  RH  049%=      5-min Rain = 0
KCR1 242005Z 19015KT 31/19 A2975 RMK A01 T03130191  RH  048%=      5-min Rain = 0
KCR1 242006Z 20013KT 31/19 A2975 RMK A01 T03140192  RH  048%=      5-min Rain = 0
KCR1 242007Z 19012KT 32/19 A2974 RMK A01 T03150194  RH  049%=      5-min Rain = 0
KCR1 242008Z 19016KT 32/19 A2974 RMK A01 T03180193  RH  048%=      5-min Rain = 0
KCR1 242009Z 19017KT 32/19 A2974 RMK A01 T03180192  RH  047%=      5-min Rain = 0
KCR1 242010Z 18015KT 32/19 A2974 RMK A01 T03170191  RH  047%=      5-min Rain = 0
KCR1 242011Z 19016G21KT 32/19 A2974 RMK A01 T03150193  RH  048%=      5-min Rain = 0
KCR1 242012Z 18016KT 31/19 A2974 RMK A01 T03140191  RH  048%=      5-min Rain = 0
KCR1 242013Z 19010KT 31/19 A2975 RMK A01 T03130190  RH  048%=      5-min Rain = 0
KCR1 242014Z 17014KT 32/19 A2974 RMK A01 T03150194  RH  049%=      5-min Rain = 0
KCR1 242015Z 17016KT 32/19 A2974 RMK A01 T03160192  RH  048%=      5-min Rain = 0
KCR1 242016Z 17014KT 31/19 A2974 RMK A01 T03120192  RH  049%=      5-min Rain = 0
KCR1 242017Z 19014KT 31/20 A2974 RMK A01 T03140196  RH  050%=      5-min Rain = 0
KCR1 242018Z 18015KT 32/19 A2974 RMK A01 T03160192  RH  048%=      5-min Rain = 0
KCR1 242019Z 18014KT 32/19 A2974 RMK A01 T03150192  RH  048%=      5-min Rain = 0
KCR1 242020Z 18015KT 31/19 A2974 RMK A01 T03140192  RH  048%=      5-min Rain = 0
KCR1 242021Z 19013KT 32/19 A2974 RMK A01 T03150194  RH  049%=      5-min Rain = 0
KCR1 242022Z 20009KT 32/19 A2974 RMK A01 T03180194  RH  048%=      5-min Rain = 0
KCR1 242023Z 19012KT 32/19 A2974 RMK A01 T03190193  RH  047%=      5-min Rain = 0
KCR1 242024Z 19012KT 32/19 A2974 RMK A01 T03200191  RH  047%=      5-min Rain = 0
KCR1 242025Z 17009KT 32/19 A2974 RMK A01 T03160193  RH  048%=      5-min Rain = 0
KCR1 242026Z 18011KT 32/19 A2974 RMK A01 T03160194  RH  048%=      5-min Rain = 0
KCR1 242027Z 19012KT 32/20 A2974 RMK A01 T03170196  RH  049%=      5-min Rain = 0
KCR1 242028Z 20013KT 32/20 A2974 RMK A01 T03210196  RH  048%=      5-min Rain = 0
KCR1 242029Z 19014KT 32/19 A2974 RMK A01 T03220191  RH  046%=      5-min Rain = 0
KCR1 242030Z 20014KT 32/19 A2974 RMK A01 T03210193  RH  047%=      5-min Rain = 0
KCR1 242031Z 20012KT 32/19 A2974 RMK A01 T03200190  RH  046%=      5-min Rain = 0
KCR1 242032Z 21011KT 32/19 A2974 RMK A01 T03190192  RH  047%=      5-min Rain = 0
KCR1 242033Z 20011KT 32/19 A2974 RMK A01 T03200192  RH  047%=      5-min Rain = 0
KCR1 242034Z 18011KT 32/19 A2974 RMK A01 T03200192  RH  047%=      5-min Rain = 0
KCR1 242035Z 19012KT 32/19 A2974 RMK A01 T03190193  RH  047%=      5-min Rain = 0
KCR1 242036Z 18015KT 32/19 A2974 RMK A01 T03180192  RH  047%=      5-min Rain = 0
KCR1 242037Z 20011KT 32/19 A2974 RMK A01 T03190194  RH  048%=      5-min Rain = 0
KCR1 242038Z 22012KT 32/19 A2974 RMK A01 T03230191  RH  046%=      5-min Rain = 0
KCR1 242039Z 17014G19KT 32/19 A2974 RMK A01 T03180190  RH  047%=      5-min Rain = 0
KCR1 242040Z 17015KT 31/19 A2974 RMK A01 T03140191  RH  048%=      5-min Rain = 0
KCR1 242041Z 18012KT 31/19 A2974 RMK A01 T03100190  RH  049%=      5-min Rain = 0
KCR1 242042Z 17014KT 31/19 A2973 RMK A01 T03090191  RH  049%=      5-min Rain = 0
KCR1 242043Z 18015KT 31/19 A2973 RMK A01 T03120193  RH  049%=      5-min Rain = 0
KCR1 242044Z 18019KT 32/19 A2973 RMK A01 T03150191  RH  048%=      5-min Rain = 0
KCR1 242045Z 20014KT 32/19 A2973 RMK A01 T03160188  RH  047%=      5-min Rain = 0
KCR1 242046Z 19013KT 32/19 A2973 RMK A01 T03170190  RH  047%=      5-min Rain = 0
KCR1 242047Z 18012KT 32/19 A2973 RMK A01 T03170194  RH  048%=      5-min Rain = 0
KCR1 242048Z 20010KT 32/19 A2973 RMK A01 T03150190  RH  048%=      5-min Rain = 0
KCR1 242049Z 19012KT 32/19 A2973 RMK A01 T03160193  RH  048%=      5-min Rain = 0
KCR1 242050Z 20013KT 32/19 A2973 RMK A01 T03180190  RH  046%=      5-min Rain = 0
KCR1 242051Z 19013KT 32/19 A2973 RMK A01 T03200190  RH  046%=      5-min Rain = 0
KCR1 242052Z 20011KT 32/19 A2973 RMK A01 T03200191  RH  046%=      5-min Rain = 0
KCR1 242053Z 21012G17KT 32/19 A2973 RMK A01 T03220193  RH  046%=      5-min Rain = 0
KCR1 242054Z 20012KT 32/19 A2973 RMK A01 T03230189  RH  045%=      5-min Rain = 0
KCR1 242055Z 21012KT 32/19 A2973 RMK A01 T03220189  RH  045%=      5-min Rain = 0
KCR1 242056Z 20013KT 32/19 A2973 RMK A01 T03220190  RH  046%=      5-min Rain = 0
KCR1 242057Z 21016KT 32/19 A2973 RMK A01 T03230190  RH  045%=      5-min Rain = 0
KCR1 242058Z 21013KT 32/19 A2973 RMK A01 T03230188  RH  045%=      5-min Rain = 0
KCR1 242059Z 20015KT 32/19 A2973 RMK A01 T03230190  RH  045%=      5-min Rain = 0
KCR1 242100Z 20011KT 33/19 A2973 RMK A01 T03250187  RH  044%=      5-min Rain = 0
KCR1 242101Z 20010KT 32/19 A2973 RMK A01 T03230185  RH  044%=      5-min Rain = 0
KCR1 242102Z 18010G15KT 32/18 A2973 RMK A01 T03200184  RH  044%=      5-min Rain = 0
KCR1 242103Z 19012KT 32/19 A2972 RMK A01 T03180190  RH  047%=      5-min Rain = 0
KCR1 242104Z 18012KT 32/19 A2972 RMK A01 T03210192  RH  047%=      5-min Rain = 0
KCR1 242105Z 17015KT 32/19 A2972 RMK A01 T03200190  RH  046%=      5-min Rain = 0
KCR1 242106Z 18013KT 32/19 A2972 RMK A01 T03160189  RH  047%=      5-min Rain = 0
KCR1 242107Z 17012KT 32/19 A2972 RMK A01 T03150194  RH  049%=      5-min Rain = 0
KCR1 242108Z 17011KT 32/20 A2972 RMK A01 T03190197  RH  049%=      5-min Rain = 0
KCR1 242109Z 17015KT 32/20 A2972 RMK A01 T03230196  RH  047%=      5-min Rain = 0
KCR1 242110Z 18014KT 33/19 A2972 RMK A01 T03250194  RH  046%=      5-min Rain = 0
KCR1 242111Z 18014KT 33/19 A2972 RMK A01 T03250193  RH  046%=      5-min Rain = 0
KCR1 242112Z 18014KT 32/19 A2972 RMK A01 T03230191  RH  046%=      5-min Rain = 0
KCR1 242113Z 19016KT 32/19 A2972 RMK A01 T03190188  RH  046%=      5-min Rain = 0
KCR1 242114Z 19014KT 32/19 A2972 RMK A01 T03150186  RH  046%=      5-min Rain = 0
KCR1 242115Z 19013KT 31/19 A2972 RMK A01 T03140187  RH  047%=      5-min Rain = 0
KCR1 242116Z 20012KT 32/19 A2972 RMK A01 T03190191  RH  047%=      5-min Rain = 0
KCR1 242117Z 20011KT 32/19 A2972 RMK A01 T03220189  RH  045%=      5-min Rain = 0
KCR1 242118Z 21012KT 32/19 A2972 RMK A01 T03230190  RH  045%=      5-min Rain = 0
KCR1 242119Z 21011KT 33/19 A2972 RMK A01 T03250189  RH  044%=      5-min Rain = 0
KCR1 242120Z 20012KT 33/19 A2972 RMK A01 T03250190  RH  045%=      5-min Rain = 0
KCR1 242121Z 20010KT 33/19 A2972 RMK A01 T03260191  RH  045%=      5-min Rain = 0
KCR1 242122Z 19010KT 33/19 A2972 RMK A01 T03270189  RH  044%=      5-min Rain = 0
KCR1 242123Z 20010KT 32/19 A2972 RMK A01 T03230187  RH  044%=      5-min Rain = 0
KCR1 242124Z 18011KT 32/19 A2972 RMK A01 T03190188  RH  046%=      5-min Rain = 0
KCR1 242125Z 19009KT 32/19 A2972 RMK A01 T03190191  RH  047%=      5-min Rain = 0
KCR1 242126Z 17011G16KT 32/20 A2972 RMK A01 T03220196  RH  047%=      5-min Rain = 0
KCR1 242127Z 17014KT 32/19 A2972 RMK A01 T03210192  RH  046%=      5-min Rain = 0
KCR1 242128Z 17015KT 32/19 A2972 RMK A01 T03160190  RH  047%=      5-min Rain = 0
KCR1 242129Z 17013KT 31/19 A2972 RMK A01 T03120189  RH  048%=      5-min Rain = 0
KCR1 242130Z 17013KT 31/19 A2972 RMK A01 T03100189  RH  049%=      5-min Rain = 0
KCR1 242131Z 18011KT 31/19 A2972 RMK A01 T03120190  RH  048%=      5-min Rain = 0
KCR1 242132Z 17012KT 32/19 A2972 RMK A01 T03150191  RH  048%=      5-min Rain = 0
KCR1 242133Z 16013KT 32/19 A2972 RMK A01 T03160190  RH  047%=      5-min Rain = 0
KCR1 242134Z 17010KT 32/19 A2971 RMK A01 T03150191  RH  048%=      5-min Rain = 0
KCR1 242135Z 17011KT 32/19 A2971 RMK A01 T03160192  RH  048%=      5-min Rain = 0
KCR1 242136Z 17010KT 32/19 A2971 RMK A01 T03160189  RH  047%=      5-min Rain = 0
KCR1 242137Z 17007KT 32/19 A2971 RMK A01 T03160191  RH  048%=      5-min Rain = 0
KCR1 242138Z 19010KT 32/19 A2971 RMK A01 T03190193  RH  047%=      5-min Rain = 0
KCR1 242139Z 19010G15KT 32/19 A2971 RMK A01 T03220193  RH  047%=      5-min Rain = 0
KCR1 242140Z 19013KT 32/19 A2971 RMK A01 T03240189  RH  045%=      5-min Rain = 0
KCR1 242141Z 20014KT 32/19 A2971 RMK A01 T03230191  RH  045%=      5-min Rain = 0
KCR1 242142Z 20013KT 32/19 A2971 RMK A01 T03240190  RH  045%=      5-min Rain = 0
KCR1 242143Z 19010KT 33/19 A2971 RMK A01 T03250189  RH  045%=      5-min Rain = 0
KCR1 242144Z 19010KT 32/19 A2971 RMK A01 T03240188  RH  044%=      5-min Rain = 0
KCR1 242145Z 19011KT 32/19 A2971 RMK A01 T03230189  RH  045%=      5-min Rain = 0
KCR1 242146Z 19011KT 32/19 A2971 RMK A01 T03220191  RH  046%=      5-min Rain = 0
KCR1 242147Z 18011KT 32/19 A2971 RMK A01 T03230192  RH  046%=      5-min Rain = 0
KCR1 242148Z 18010G15KT 32/19 A297 RMK A01 T03240194  RH  046%=      5-min Rain = 0
KCR1 242149Z 18010KT 32/19 A297 RMK A01 T03240188  RH  045%=      5-min Rain = 0
KCR1 242150Z 17007KT 32/19 A297 RMK A01 T03220190  RH  046%=      5-min Rain = 0
KCR1 242151Z 19008KT 32/19 A297 RMK A01 T03210191  RH  046%=      5-min Rain = 0
KCR1 242152Z 21007KT 32/19 A297 RMK A01 T03210192  RH  046%=      5-min Rain = 0
KCR1 242153Z 19008KT 32/19 A297 RMK A01 T03240191  RH  045%=      5-min Rain = 0
KCR1 242154Z 18008KT 33/19 A297 RMK A01 T03250191  RH  045%=      5-min Rain = 0
KCR1 242155Z 17013KT 33/19 A297 RMK A01 T03250192  RH  045%=      5-min Rain = 0
KCR1 242156Z 16013KT 32/19 A297 RMK A01 T03230190  RH  045%=      5-min Rain = 0
KCR1 242157Z 17011KT 32/19 A297 RMK A01 T03210188  RH  045%=      5-min Rain = 0
KCR1 242158Z 17011KT 32/19 A297 RMK A01 T03190190  RH  046%=      5-min Rain = 0
KCR1 242159Z 17012KT 32/19 A297 RMK A01 T03190190  RH  046%=      5-min Rain = 0
KCR1 242200Z 17014KT 32/19 A297 RMK A01 T03200191  RH  046%=      5-min Rain = 0
KCR1 242201Z 16011KT 32/19 A297 RMK A01 T03200194  RH  047%=      5-min Rain = 0
KCR1 242202Z 16012KT 32/19 A297 RMK A01 T03170190  RH  047%=      5-min Rain = 0
KCR1 242203Z 16013KT 31/19 A2969 RMK A01 T03140189  RH  047%=      5-min Rain = 0
KCR1 242204Z 18010KT 31/19 A2969 RMK A01 T03120189  RH  048%=      5-min Rain = 0
KCR1 242205Z 17011KT 31/19 A2969 RMK A01 T03120189  RH  048%=      5-min Rain = 0
KCR1 242206Z 18009KT 31/19 A2969 RMK A01 T03140187  RH  047%=      5-min Rain = 0
KCR1 242207Z 18009KT 32/19 A2969 RMK A01 T03180189  RH  046%=      5-min Rain = 0
KCR1 242208Z 18007KT 32/19 A2969 RMK A01 T03190188  RH  046%=      5-min Rain = 0
KCR1 242209Z 18008KT 32/19 A2969 RMK A01 T03210192  RH  046%=      5-min Rain = 0
KCR1 242210Z 19010KT 32/19 A2969 RMK A01 T03230191  RH  046%=      5-min Rain = 0
KCR1 242211Z 18014KT 32/19 A2969 RMK A01 T03230190  RH  045%=      5-min Rain = 0
KCR1 242212Z 18013KT 32/19 A2969 RMK A01 T03190190  RH  046%=      5-min Rain = 0
KCR1 242213Z 18012KT 32/19 A2969 RMK A01 T03150187  RH  047%=      5-min Rain = 0
KCR1 242214Z 18010KT 31/19 A2969 RMK A01 T03120189  RH  048%=      5-min Rain = 0
KCR1 242215Z 18012KT 31/19 A2969 RMK A01 T03110190  RH  049%=      5-min Rain = 0
KCR1 242216Z 18011KT 31/19 A2969 RMK A01 T03110189  RH  048%=      5-min Rain = 0
KCR1 242217Z 18010KT 31/19 A2969 RMK A01 T03100189  RH  048%=      5-min Rain = 0
KCR1 242218Z 18009KT 31/19 A2968 RMK A01 T03130189  RH  048%=      5-min Rain = 0
KCR1 242219Z 20010G16KT 32/19 A2968 RMK A01 T03160190  RH  047%=      5-min Rain = 0
KCR1 242220Z 20013KT 32/19 A2968 RMK A01 T03200191  RH  046%=      5-min Rain = 0
KCR1 242221Z 20011KT 32/19 A2968 RMK A01 T03240189  RH  045%=      5-min Rain = 0
KCR1 242222Z 20012KT 33/19 A2968 RMK A01 T03250188  RH  044%=      5-min Rain = 0
KCR1 242223Z 18012KT 33/19 A2968 RMK A01 T03250189  RH  045%=      5-min Rain = 0
KCR1 242224Z 19010KT 32/19 A2968 RMK A01 T03230190  RH  045%=      5-min Rain = 0
KCR1 242225Z 19011KT 32/19 A2968 RMK A01 T03230189  RH  045%=      5-min Rain = 0
KCR1 242226Z 19011KT 32/19 A2968 RMK A01 T03230189  RH  045%=      5-min Rain = 0
KCR1 242227Z 17011KT 32/19 A2968 RMK A01 T03230190  RH  045%=      5-min Rain = 0
KCR1 242228Z 17009KT 32/19 A2967 RMK A01 T03240190  RH  045%=      5-min Rain = 0
KCR1 242229Z 15008KT 32/19 A2967 RMK A01 T03230192  RH  046%=      5-min Rain = 0
KCR1 242230Z 16009G14KT 33/19 A2967 RMK A01 T03250186  RH  044%=      5-min Rain = 0
KCR1 242231Z 19012KT 33/19 A2967 RMK A01 T03250189  RH  045%=      5-min Rain = 0
KCR1 242232Z 18011KT 33/19 A2967 RMK A01 T03260187  RH  044%=      5-min Rain = 0
KCR1 242233Z 16009KT 33/19 A2967 RMK A01 T03250185  RH  044%=      5-min Rain = 0
KCR1 242234Z 19007KT 32/19 A2967 RMK A01 T03230188  RH  045%=      5-min Rain = 0
KCR1 242235Z 18008KT 32/19 A2967 RMK A01 T03230189  RH  045%=      5-min Rain = 0
KCR1 242236Z 17010KT 32/19 A2967 RMK A01 T03240192  RH  046%=      5-min Rain = 0
KCR1 242237Z 17010KT 33/19 A2967 RMK A01 T03260191  RH  045%=      5-min Rain = 0
KCR1 242238Z 16012KT 33/19 A2967 RMK A01 T03260191  RH  045%=      5-min Rain = 0
KCR1 242239Z 16012KT 33/19 A2967 RMK A01 T03260191  RH  045%=      5-min Rain = 0
KCR1 242240Z 16014KT 33/19 A2967 RMK A01 T03260192  RH  045%=      5-min Rain = 0
KCR1 242241Z 17013KT 33/19 A2967 RMK A01 T03260188  RH  044%=      5-min Rain = 0
KCR1 242242Z 18012KT 33/19 A2967 RMK A01 T03250189  RH  045%=      5-min Rain = 0
KCR1 242243Z 18012KT 32/19 A2967 RMK A01 T03240188  RH  044%=      5-min Rain = 0
KCR1 242244Z 18012KT 32/19 A2967 RMK A01 T03240188  RH  044%=      5-min Rain = 0
KCR1 242245Z 17010KT 32/19 A2967 RMK A01 T03240187  RH  044%=      5-min Rain = 0
KCR1 242246Z 17009KT 32/19 A2966 RMK A01 T03230189  RH  045%=      5-min Rain = 0
KCR1 242247Z 17008KT 32/19 A2966 RMK A01 T03240190  RH  045%=      5-min Rain = 0
KCR1 242248Z 16015G20KT 33/19 A2966 RMK A01 T03250191  RH  045%=      5-min Rain = 0
KCR1 242249Z 15012KT 33/19 A2966 RMK A01 T03260190  RH  045%=      5-min Rain = 0
KCR1 242250Z 15011KT 33/19 A2966 RMK A01 T03260187  RH  044%=      5-min Rain = 0
KCR1 242251Z 14013KT 33/19 A2966 RMK A01 T03250187  RH  044%=      5-min Rain = 0
KCR1 242252Z 15013KT 33/19 A2966 RMK A01 T03250187  RH  044%=      5-min Rain = 0
KCR1 242253Z 14012KT 32/19 A2966 RMK A01 T03240187  RH  044%=      5-min Rain = 0
KCR1 242254Z 16015KT 33/19 A2966 RMK A01 T03250189  RH  045%=      5-min Rain = 0
KCR1 242255Z 16012KT 33/19 A2966 RMK A01 T03250186  RH  044%=      5-min Rain = 0
KCR1 242256Z 16010KT 33/19 A2966 RMK A01 T03250189  RH  045%=      5-min Rain = 0
KCR1 242257Z 15010KT 33/19 A2966 RMK A01 T03250188  RH  044%=      5-min Rain = 0
KCR1 242258Z 14013KT 33/19 A2966 RMK A01 T03250187  RH  044%=      5-min Rain = 0
KCR1 242259Z 15012KT 33/19 A2966 RMK A01 T03250187  RH  044%=      5-min Rain = 0
KCR1 242300Z 15013KT 33/19 A2966 RMK A01 T03250187  RH  044%=      5-min Rain = 0
KCR1 242301Z 14014KT 33/19 A2966 RMK A01 T03250187  RH  044%=      5-min Rain = 0
KCR1 242302Z 14013KT 33/19 A2966 RMK A01 T03250188  RH  044%=      5-min Rain = 0
KCR1 242303Z 14012KT 32/19 A2966 RMK A01 T03240187  RH  044%=      5-min Rain = 0
KCR1 242304Z 15011KT 32/19 A2966 RMK A01 T03240186  RH  044%=      5-min Rain = 0
KCR1 242305Z 15013KT 32/19 A2966 RMK A01 T03240190  RH  045%=      5-min Rain = 0
KCR1 242306Z 14014KT 33/19 A2966 RMK A01 T03250186  RH  044%=      5-min Rain = 0
KCR1 242307Z 14015KT 33/19 A2966 RMK A01 T03250185  RH  043%=      5-min Rain = 0
KCR1 242308Z 14012KT 33/19 A2966 RMK A01 T03250186  RH  044%=      5-min Rain = 0
KCR1 242309Z 14011KT 32/19 A2966 RMK A01 T03240186  RH  044%=      5-min Rain = 0
KCR1 242310Z 14011KT 33/19 A2966 RMK A01 T03250187  RH  044%=      5-min Rain = 0
KCR1 242311Z 15012KT 33/19 A2966 RMK A01 T03250187  RH  044%=      5-min Rain = 0
KCR1 242312Z 16013KT 33/19 A2966 RMK A01 T03250185  RH  043%=      5-min Rain = 0
KCR1 242313Z 16011KT 32/18 A2966 RMK A01 T03240184  RH  043%=      5-min Rain = 0
KCR1 242314Z 16015KT 32/19 A2966 RMK A01 T03240187  RH  044%=      5-min Rain = 0
KCR1 242315Z 16014KT 32/18 A2966 RMK A01 T03230184  RH  044%=      5-min Rain = 0
KCR1 242316Z 16011KT 32/19 A2966 RMK A01 T03220186  RH  044%=      5-min Rain = 0
KCR1 242317Z 16010KT 32/19 A2966 RMK A01 T03230188  RH  045%=      5-min Rain = 0
KCR1 242318Z 16011KT 32/19 A2966 RMK A01 T03240188  RH  044%=      5-min Rain = 0
KCR1 242319Z 16012KT 32/19 A2966 RMK A01 T03240186  RH  044%=      5-min Rain = 0
KCR1 242320Z 17013KT 32/19 A2966 RMK A01 T03240185  RH  044%=      5-min Rain = 0
KCR1 242321Z 17012KT 32/18 A2966 RMK A01 T03240184  RH  043%=      5-min Rain = 0
KCR1 242322Z 16012KT 32/18 A2966 RMK A01 T03230184  RH  044%=      5-min Rain = 0
KCR1 242323Z 15011KT 32/19 A2965 RMK A01 T03230186  RH  044%=      5-min Rain = 0
KCR1 242324Z 14011KT 32/19 A2965 RMK A01 T03240188  RH  045%=      5-min Rain = 0
KCR1 242325Z 14012KT 32/18 A2965 RMK A01 T03240184  RH  043%=      5-min Rain = 0
KCR1 242326Z 14014KT 32/18 A2965 RMK A01 T03240184  RH  043%=      5-min Rain = 0
KCR1 242327Z 14013KT 32/18 A2965 RMK A01 T03230182  RH  043%=      5-min Rain = 0
KCR1 242328Z 14009KT 32/19 A2965 RMK A01 T03230186  RH  044%=      5-min Rain = 0
KCR1 242329Z 14012KT 32/19 A2965 RMK A01 T03230186  RH  044%=      5-min Rain = 0
KCR1 242330Z 15015KT 32/18 A2965 RMK A01 T03240184  RH  044%=      5-min Rain = 0
KCR1 242331Z 14016KT 32/18 A2965 RMK A01 T03240177  RH  042%=      5-min Rain = 0
KCR1 242332Z 14014KT 32/18 A2965 RMK A01 T03240178  RH  042%=      5-min Rain = 0
KCR1 242333Z 15016KT 32/18 A2965 RMK A01 T03240179  RH  042%=      5-min Rain = 0
KCR1 242334Z 15017KT 32/18 A2965 RMK A01 T03240177  RH  042%=      5-min Rain = 0
KCR1 242335Z 15015KT 32/18 A2965 RMK A01 T03230177  RH  042%=      5-min Rain = 0
KCR1 242336Z 15016KT 32/18 A2965 RMK A01 T03230178  RH  042%=      5-min Rain = 0
KCR1 242337Z 16015KT 32/18 A2965 RMK A01 T03230181  RH  043%=      5-min Rain = 0
KCR1 242338Z 15016KT 32/18 A2965 RMK A01 T03220180  RH  043%=      5-min Rain = 0
KCR1 242339Z 15014KT 32/18 A2965 RMK A01 T03200180  RH  043%=      5-min Rain = 0
KCR1 242340Z 16013KT 32/18 A2965 RMK A01 T03190180  RH  044%=      5-min Rain = 0
KCR1 242341Z 15014KT 32/18 A2965 RMK A01 T03190180  RH  044%=      5-min Rain = 0
KCR1 242342Z 16011KT 32/18 A2965 RMK A01 T03210183  RH  044%=      5-min Rain = 0
KCR1 242343Z 15011KT 32/18 A2965 RMK A01 T03220184  RH  044%=      5-min Rain = 0
KCR1 242344Z 14012KT 32/18 A2965 RMK A01 T03230183  RH  043%=      5-min Rain = 0
KCR1 242345Z 15012KT 32/18 A2965 RMK A01 T03230181  RH  043%=      5-min Rain = 0
KCR1 242346Z 14013KT 32/18 A2965 RMK A01 T03230182  RH  043%=      5-min Rain = 0
KCR1 242347Z 14014KT 32/18 A2965 RMK A01 T03240183  RH  043%=      5-min Rain = 0
KCR1 242348Z 14013KT 32/18 A2965 RMK A01 T03240181  RH  043%=      5-min Rain = 0
KCR1 242349Z 15013KT 32/18 A2965 RMK A01 T03240181  RH  043%=      5-min Rain = 0
KCR1 242350Z 15013KT 32/18 A2965 RMK A01 T03230181  RH  043%=      5-min Rain = 0
KCR1 242351Z 15013KT 32/18 A2965 RMK A01 T03230181  RH  043%=      5-min Rain = 0
KCR1 242352Z 15012KT 32/18 A2965 RMK A01 T03230181  RH  043%=      5-min Rain = 0
KCR1 242353Z 15014KT 32/19 A2965 RMK A01 T03240186  RH  044%=      5-min Rain = 0
KCR1 242354Z 15015KT 32/18 A2965 RMK A01 T03240182  RH  043%=      5-min Rain = 0
KCR1 242355Z 14013KT 32/18 A2965 RMK A01 T03240182  RH  043%=      5-min Rain = 0
KCR1 242356Z 13013G18KT 32/19 A2965 RMK A01 T03230188  RH  045%=      5-min Rain = 0
KCR1 242357Z 12015KT 32/19 A2964 RMK A01 T03200191  RH  046%=      5-min Rain = 0
KCR1 242358Z 12016KT 32/19 A2964 RMK A01 T03160192  RH  048%=      5-min Rain = 0
KCR1 242359Z 13017KT 32/19 A2965 RMK A01 T03150193  RH  049%=      5-min Rain = 0
KCR1 250000Z 13019KT 31/19 A2965 RMK A01 T03130191  RH  048%=      5-min Rain = 0
KCR1 250001Z 14017KT 31/19 A2965 RMK A01 T03110191  RH  049%=      5-min Rain = 0
KCR1 250002Z 14019G24KT 31/19 A2965 RMK A01 T03090190  RH  049%=      5-min Rain = 0
KCR1 250003Z 14018G23KT 31/19 A2965 RMK A01 T03080190  RH  049%=      5-min Rain = 0
KCR1 250004Z 14018KT 31/19 A2965 RMK A01 T03070190  RH  050%=      5-min Rain = 0
KCR1 250005Z 13015KT 31/19 A2965 RMK A01 T03060188  RH  049%=      5-min Rain = 0
KCR1 250006Z 12013KT 31/19 A2965 RMK A01 T03060191  RH  050%=      5-min Rain = 0
KCR1 250007Z 12012KT 31/19 A2965 RMK A01 T03050192  RH  051%=      5-min Rain = 0
KCR1 250008Z 12013G18KT 30/19 A2964 RMK A01 T03040193  RH  051%=      5-min Rain = 0
KCR1 250009Z 12016KT 30/19 A2964 RMK A01 T03030192  RH  051%=      5-min Rain = 0
KCR1 250010Z 12014KT 30/19 A2964 RMK A01 T03030192  RH  051%=      5-min Rain = 0
KCR1 250011Z 13013KT 30/19 A2964 RMK A01 T03030193  RH  052%=      5-min Rain = 0
KCR1 250012Z 12012KT 30/19 A2964 RMK A01 T03020193  RH  052%=      5-min Rain = 0
KCR1 250013Z 12016KT 30/19 A2964 RMK A01 T03020193  RH  052%=      5-min Rain = 0
KCR1 250014Z 13016KT 30/19 A2964 RMK A01 T03020193  RH  052%=      5-min Rain = 0
KCR1 250015Z 12014KT 30/19 A2964 RMK A01 T03010193  RH  052%=      5-min Rain = 0
KCR1 250016Z 12013KT 30/19 A2964 RMK A01 T03010193  RH  053%=      5-min Rain = 0
KCR1 250017Z 13015KT 30/19 A2964 RMK A01 T03000192  RH  052%=      5-min Rain = 0
KCR1 250018Z 13014KT 30/19 A2964 RMK A01 T03000194  RH  053%=      5-min Rain = 0
KCR1 250019Z 12012KT 30/19 A2964 RMK A01 T03000194  RH  053%=      5-min Rain = 0
KCR1 250020Z 13012KT 30/19 A2964 RMK A01 T03000193  RH  053%=      5-min Rain = 0
KCR1 250021Z 12015KT 30/19 A2964 RMK A01 T02990193  RH  053%=      5-min Rain = 0
KCR1 250022Z 13014KT 30/19 A2964 RMK A01 T03000193  RH  053%=      5-min Rain = 0
KCR1 250023Z 13015KT 30/19 A2964 RMK A01 T02990192  RH  053%=      5-min Rain = 0
KCR1 250024Z 13015KT 30/19 A2964 RMK A01 T02990192  RH  053%=      5-min Rain = 0
KCR1 250025Z 12013KT 30/19 A2964 RMK A01 T02990192  RH  053%=      5-min Rain = 0
KCR1 250026Z 12014KT 30/19 A2964 RMK A01 T02990193  RH  053%=      5-min Rain = 0
KCR1 250027Z 12016KT 30/19 A2964 RMK A01 T02990192  RH  053%=      5-min Rain = 0
KCR1 250028Z 12014KT 30/19 A2964 RMK A01 T02990194  RH  053%=      5-min Rain = 0
KCR1 250029Z 13017KT 30/19 A2964 RMK A01 T02990193  RH  053%=      5-min Rain = 0
KCR1 250030Z 12016KT 30/19 A2964 RMK A01 T02980193  RH  053%=      5-min Rain = 0
KCR1 250031Z 12019KT 30/19 A2963 RMK A01 T02980192  RH  053%=      5-min Rain = 0
KCR1 250032Z 12020KT 30/19 A2963 RMK A01 T02980191  RH  052%=      5-min Rain = 0
KCR1 250033Z 13018KT 30/19 A2963 RMK A01 T02980190  RH  052%=      5-min Rain = 0
KCR1 250034Z 12016KT 30/19 A2963 RMK A01 T02980190  RH  052%=      5-min Rain = 0
KCR1 250035Z 12014KT 30/19 A2963 RMK A01 T02980192  RH  053%=      5-min Rain = 0
KCR1 250036Z 13014KT 30/19 A2963 RMK A01 T02970192  RH  053%=      5-min Rain = 0
KCR1 250037Z 13017G22KT 30/19 A2963 RMK A01 T02970191  RH  053%=      5-min Rain = 0
KCR1 250038Z 12028G37KT 30/19 A2964 RMK A01 T02960192  RH  053%=      5-min Rain = 0
KCR1 250039Z 13030G35KT 29/19 A2964 RMK A01 T02880191  RH  056%=      5-min Rain = 0
KCR1 250040Z 13027G34KT 28/19 A2965 RMK A01 T02780191  RH  059%=      5-min Rain = 0
KCR1 250041Z 13028KT 27/19 A2965 RMK A01 T02730191  RH  061%=      5-min Rain = 0
KCR1 250042Z 13027KT 27/19 A2965 RMK A01 T02690191  RH  062%=      5-min Rain = 0
KCR1 250043Z 13025KT 27/19 A2966 RMK A01 T02670191  RH  063%=      5-min Rain = 0
KCR1 250044Z 13023KT 27/19 A2966 RMK A01 T02660192  RH  064%=      5-min Rain = 0
KCR1 250045Z 13023KT 26/19 A2966 RMK A01 T02640191  RH  064%=      5-min Rain = 0
KCR1 250046Z 13023KT 26/19 A2966 RMK A01 T02630191  RH  065%=      5-min Rain = 0
KCR1 250047Z 13021KT 26/19 A2966 RMK A01 T02620191  RH  065%=      5-min Rain = 0
KCR1 250048Z 13020G25KT 26/19 A2966 RMK A01 T02610191  RH  065%=      5-min Rain = 0
KCR1 250049Z 13021KT 26/19 A2966 RMK A01 T02610191  RH  065%=      5-min Rain = 0
KCR1 250050Z 13019KT 26/19 A2966 RMK A01 T02600191  RH  066%=      5-min Rain = 0
KCR1 250051Z 13020KT 26/19 A2966 RMK A01 T02600192  RH  066%=      5-min Rain = 0
KCR1 250052Z 13016G23KT 26/19 A2966 RMK A01 T02590192  RH  066%=      5-min Rain = 0
KCR1 250053Z 14019G27KT 26/19 A2966 RMK A01 T02580192  RH  067%=      5-min Rain = 0
KCR1 250054Z 13023G28KT 26/19 A2966 RMK A01 T02580191  RH  066%=      5-min Rain = 0
KCR1 250055Z 13022KT 26/19 A2966 RMK A01 T02570189  RH  066%=      5-min Rain = 0
KCR1 250056Z 13021G26KT 26/19 A2966 RMK A01 T02570189  RH  066%=      5-min Rain = 0
KCR1 250057Z 13021G27KT 26/19 A2966 RMK A01 T02560189  RH  066%=      5-min Rain = 0
KCR1 250058Z 13021G26KT 26/19 A2966 RMK A01 T02560189  RH  066%=      5-min Rain = 0
KCR1 250059Z 14022KT 26/19 A2966 RMK A01 T02560189  RH  066%=      5-min Rain = 0
KCR1 250100Z 14017KT 26/19 A2966 RMK A01 T02550189  RH  067%=      5-min Rain = 0
KCR1 250101Z 14021G26KT 26/19 A2966 RMK A01 T02550189  RH  067%=      5-min Rain = 0
KCR1 250102Z 14023G29KT 25/19 A2965 RMK A01 T02540188  RH  067%=      5-min Rain = 0
KCR1 250103Z 14026G32KT 25/19 A2965 RMK A01 T02530187  RH  067%=      5-min Rain = 0
KCR1 250104Z 14026KT 25/19 A2965 RMK A01 T02530186  RH  066%=      5-min Rain = 0
KCR1 250105Z 14024KT 25/19 A2965 RMK A01 T02530186  RH  067%=      5-min Rain = 0
KCR1 250106Z 13023G28KT 25/19 A2965 RMK A01 T02520187  RH  067%=      5-min Rain = 0
KCR1 250107Z 14023KT 25/19 A2965 RMK A01 T02520186  RH  067%=      5-min Rain = 0
KCR1 250108Z 14020KT 25/19 A2965 RMK A01 T02520187  RH  067%=      5-min Rain = 0
KCR1 250109Z 14023KT 25/19 A2966 RMK A01 T02510187  RH  067%=      5-min Rain = 0
KCR1 250110Z 14020G25KT 25/19 A2966 RMK A01 T02510186  RH  067%=      5-min Rain = 0
KCR1 250111Z 14019G26KT 25/19 A2966 RMK A01 T02510187  RH  068%=      5-min Rain = 0
KCR1 250112Z 14019G25KT 25/19 A2967 RMK A01 T02510186  RH  067%=      5-min Rain = 0
KCR1 250113Z 14022KT 25/19 A2967 RMK A01 T02510186  RH  067%=      5-min Rain = 0
KCR1 250114Z 14021KT 25/19 A2967 RMK A01 T02510185  RH  067%=      5-min Rain = 0
KCR1 250115Z 15023G29KT 25/18 A2967 RMK A01 T02510184  RH  066%=      5-min Rain = 0
KCR1 250116Z 15022KT 25/18 A2967 RMK A01 T02510182  RH  066%=      5-min Rain = 0
KCR1 250117Z 14022KT 25/18 A2967 RMK A01 T02500181  RH  065%=      5-min Rain = 0
KCR1 250118Z 14018KT 25/18 A2967 RMK A01 T02510183  RH  066%=      5-min Rain = 0
KCR1 250119Z 14020KT 25/18 A2967 RMK A01 T02500183  RH  066%=      5-min Rain = 0
KCR1 250120Z 13020G25KT 25/18 A2967 RMK A01 T02500182  RH  066%=      5-min Rain = 0
KCR1 250121Z 14019KT 25/18 A2967 RMK A01 T02490181  RH  066%=      5-min Rain = 0
KCR1 250122Z 15021KT 25/18 A2967 RMK A01 T02490181  RH  066%=      5-min Rain = 0
KCR1 250123Z 14020KT 25/18 A2967 RMK A01 T02480181  RH  066%=      5-min Rain = 0
KCR1 250124Z 15021KT 25/18 A2967 RMK A01 T02480180  RH  066%=      5-min Rain = 0
KCR1 250125Z 15018KT 25/18 A2967 RMK A01 T02470180  RH  066%=      5-min Rain = 0
KCR1 250126Z 15019KT 25/18 A2968 RMK A01 T02470180  RH  066%=      5-min Rain = 0
KCR1 250127Z 15015KT 25/18 A2968 RMK A01 T02460181  RH  067%=      5-min Rain = 0
KCR1 250128Z 14018KT 25/18 A2968 RMK A01 T02460181  RH  067%=      5-min Rain = 0
KCR1 250129Z 15017KT 25/18 A2968 RMK A01 T02450181  RH  067%=      5-min Rain = 0
KCR1 250130Z 15018G23KT 25/18 A2968 RMK A01 T02450180  RH  067%=      5-min Rain = 0
KCR1 250131Z 15017KT 25/18 A2968 RMK A01 T02450180  RH  067%=      5-min Rain = 0
KCR1 250132Z 15016KT 25/18 A2968 RMK A01 T02450180  RH  067%=      5-min Rain = 0
KCR1 250133Z 15015KT 25/18 A2967 RMK A01 T02450181  RH  067%=      5-min Rain = 0
KCR1 250134Z 14018G23KT 25/18 A2967 RMK A01 T02450181  RH  067%=      5-min Rain = 0
KCR1 250135Z 15019G24KT 25/18 A2967 RMK A01 T02450179  RH  067%=      5-min Rain = 0
KCR1 250136Z 15021G26KT 25/18 A2967 RMK A01 T02450179  RH  067%=      5-min Rain = 0
KCR1 250137Z 16018G24KT 25/18 A2968 RMK A01 T02450179  RH  067%=      5-min Rain = 0
KCR1 250138Z 15018G23KT 25/18 A2968 RMK A01 T02450179  RH  067%=      5-min Rain = 0
KCR1 250139Z 15016KT 25/18 A2968 RMK A01 T02450180  RH  067%=      5-min Rain = 0
KCR1 250140Z 15020KT 24/18 A2968 RMK A01 T02440180  RH  067%=      5-min Rain = 0
KCR1 250141Z 15022KT 24/18 A2967 RMK A01 T02440179  RH  067%=      5-min Rain = 0
KCR1 250142Z 14018G23KT 24/18 A2967 RMK A01 T02440179  RH  067%=      5-min Rain = 0
KCR1 250143Z 14017KT 24/18 A2967 RMK A01 T02430179  RH  068%=      5-min Rain = 0
KCR1 250144Z 14015KT 24/18 A2967 RMK A01 T02430179  RH  068%=      5-min Rain = 0
KCR1 250145Z 14018G23KT 24/18 A2967 RMK A01 T02420179  RH  068%=      5-min Rain = 0
KCR1 250146Z 15018KT 24/18 A2968 RMK A01 T02420178  RH  068%=      5-min Rain = 0
KCR1 250147Z 14019G24KT 24/18 A2968 RMK A01 T02410178  RH  068%=      5-min Rain = 0
KCR1 250148Z 15018KT 24/18 A2968 RMK A01 T02410178  RH  068%=      5-min Rain = 0
KCR1 250149Z 14020KT 24/18 A2969 RMK A01 T02410178  RH  068%=      5-min Rain = 0
KCR1 250150Z 14017KT 24/18 A2969 RMK A01 T02410178  RH  068%=      5-min Rain = 0
KCR1 250151Z 14016KT 24/18 A2969 RMK A01 T02410178  RH  068%=      5-min Rain = 0
KCR1 250152Z 15015KT 24/18 A2969 RMK A01 T02400177  RH  068%=      5-min Rain = 0
KCR1 250153Z 14013KT 24/18 A2969 RMK A01 T02400178  RH  068%=      5-min Rain = 0
KCR1 250154Z 14015KT 24/18 A2969 RMK A01 T02400178  RH  068%=      5-min Rain = 0
KCR1 250155Z 15014KT 24/18 A2969 RMK A01 T02400178  RH  068%=      5-min Rain = 0
KCR1 250156Z 15014G20KT 24/18 A297 RMK A01 T02400178  RH  068%=      5-min Rain = 0
KCR1 250157Z 15015G20KT 24/18 A297 RMK A01 T02400178  RH  068%=      5-min Rain = 0
KCR1 250158Z 15018KT 24/18 A297 RMK A01 T02400178  RH  068%=      5-min Rain = 0
KCR1 250159Z 15017KT 24/18 A297 RMK A01 T02400177  RH  068%=      5-min Rain = 0
KCR1 250200Z 15015KT 24/18 A2971 RMK A01 T02400177  RH  068%=      5-min Rain = 0
KCR1 250201Z 14012KT 24/18 A2971 RMK A01 T02390176  RH  067%=      5-min Rain = 0
KCR1 250202Z 15012KT 24/18 A2971 RMK A01 T02390177  RH  068%=      5-min Rain = 0
KCR1 250203Z 14013KT 24/18 A2971 RMK A01 T02390176  RH  068%=      5-min Rain = 0
KCR1 250204Z 14013G18KT 24/18 A2971 RMK A01 T02390176  RH  068%=      5-min Rain = 0
KCR1 250205Z 15012KT 24/18 A2971 RMK A01 T02390176  RH  068%=      5-min Rain = 0
KCR1 250206Z 14013KT 24/18 A2971 RMK A01 T02390176  RH  068%=      5-min Rain = 0
KCR1 250207Z 15013KT 24/18 A2972 RMK A01 T02380175  RH  068%=      5-min Rain = 0
KCR1 250208Z 15013KT 24/18 A2972 RMK A01 T02380175  RH  067%=      5-min Rain = 0
KCR1 250209Z 14012KT 24/18 A2972 RMK A01 T02390175  RH  068%=      5-min Rain = 0
KCR1 250210Z 15013KT 24/17 A2972 RMK A01 T02380174  RH  067%=      5-min Rain = 0
KCR1 250211Z 15013KT 24/17 A2972 RMK A01 T02380174  RH  067%=      5-min Rain = 0
KCR1 250212Z 15014KT 24/17 A2972 RMK A01 T02380173  RH  067%=      5-min Rain = 0
KCR1 250213Z 15014KT 24/17 A2972 RMK A01 T02380173  RH  067%=      5-min Rain = 0
KCR1 250214Z 15012KT 24/17 A2972 RMK A01 T02390174  RH  067%=      5-min Rain = 0
KCR1 250215Z 15012KT 24/17 A2972 RMK A01 T02390173  RH  067%=      5-min Rain = 0
KCR1 250216Z 15012KT 24/17 A2973 RMK A01 T02380174  RH  067%=      5-min Rain = 0
KCR1 250217Z 15015KT 24/17 A2973 RMK A01 T02380173  RH  067%=      5-min Rain = 0
KCR1 250218Z 15012KT 24/17 A2973 RMK A01 T02380173  RH  067%=      5-min Rain = 0
KCR1 250219Z 15014KT 24/17 A2973 RMK A01 T02380173  RH  067%=      5-min Rain = 0
KCR1 250220Z 15014KT 24/17 A2973 RMK A01 T02380173  RH  067%=      5-min Rain = 0
KCR1 250221Z 15011KT 24/17 A2973 RMK A01 T02380173  RH  067%=      5-min Rain = 0
KCR1 250222Z 15012KT 24/17 A2974 RMK A01 T02380174  RH  067%=      5-min Rain = 0
KCR1 250223Z 15013KT 24/17 A2974 RMK A01 T02380173  RH  067%=      5-min Rain = 0
KCR1 250224Z 14011KT 24/17 A2974 RMK A01 T02380173  RH  067%=      5-min Rain = 0
KCR1 250225Z 14011KT 24/17 A2974 RMK A01 T02380173  RH  067%=      5-min Rain = 0
KCR1 250226Z 15010KT 24/17 A2974 RMK A01 T02380174  RH  067%=      5-min Rain = 0
KCR1 250227Z 15010KT 24/17 A2974 RMK A01 T02380174  RH  067%=      5-min Rain = 0
KCR1 250228Z 15008KT 24/17 A2974 RMK A01 T02380173  RH  067%=      5-min Rain = 0
KCR1 250229Z 16009KT 24/17 A2974 RMK A01 T02380174  RH  067%=      5-min Rain = 0
KCR1 250230Z 17009KT 24/17 A2975 RMK A01 T02380174  RH  068%=      5-min Rain = 0
KCR1 250231Z 18008KT 24/17 A2975 RMK A01 T02380174  RH  067%=      5-min Rain = 0
KCR1 250232Z 20010KT 24/17 A2976 RMK A01 T02370174  RH  068%=      5-min Rain = 0
KCR1 250233Z 21011KT 24/17 A2977 RMK A01 T02380173  RH  067%=      5-min Rain = 0
KCR1 250234Z 22014KT 24/17 A2979 RMK A01 T02380173  RH  067%=      5-min Rain = 0
KCR1 250235Z 23014KT 24/17 A298 RMK A01 T02390172  RH  066%=      5-min Rain = 0
KCR1 250236Z 23019KT 24/17 A2981 RMK A01 T02400171  RH  065%=      5-min Rain = 0
KCR1 250237Z 24021G26KT 24/15 A2981 RMK A01 T02390154  RH  059%=      5-min Rain = 0
KCR1 250238Z 25020G27KT 23/14 A2982 RMK A01 T02340139  RH  055%=      5-min Rain = 0
KCR1 250239Z 25016KT 23/13 A2982 RMK A01 T02290132  RH  054%=      5-min Rain = 0
KCR1 250240Z 26016G24KT 23/13 A2983 RMK A01 T02260133  RH  056%=      5-min Rain = 0
KCR1 250241Z 25021KT 22/13 A2983 RMK A01 T02240130  RH  055%=      5-min Rain = 0
KCR1 250242Z 26018KT 22/13 A2983 RMK A01 T02220130  RH  056%=      5-min Rain = 0
KCR1 250243Z 25019G26KT 22/13 A2983 RMK A01 T02210131  RH  056%=      5-min Rain = 0
KCR1 250244Z 25021G26KT 22/13 A2984 RMK A01 T02210130  RH  056%=      5-min Rain = 0
KCR1 250245Z 25019KT 22/13 A2984 RMK A01 T02200132  RH  057%=      5-min Rain = 0
KCR1 250246Z 26023KT 22/14 A2985 RMK A01 T02180135  RH  059%=      5-min Rain = 0
KCR1 250247Z 26021G27KT 21/14 A2985 RMK A01 T02120143  RH  065%=      5-min Rain = 0
KCR1 250248Z 26021KT 20/15 A2986 RMK A01 T02030149  RH  071%=      5-min Rain = 0.01
KCR1 250249Z 27019G24KT 19/15 A2986 RMK A01 T01940154  RH  077%=      5-min Rain = 0.02
KCR1 250250Z 27018G25KT 19/15 A2985 RMK A01 T01870154  RH  081%=      5-min Rain = 0.02
KCR1 250251Z 27018G24KT 18/16 A2985 RMK A01 T01820155  RH  084%=      5-min Rain = 0.03
KCR1 250252Z 27018KT 18/16 A2984 RMK A01 T01780157  RH  087%=      5-min Rain = 0.02
KCR1 250253Z 27021KT 17/16 A2984 RMK A01 T01740157  RH  089%=      5-min Rain = 0.02
KCR1 250254Z 26018KT 17/16 A2984 RMK A01 T01710156  RH  091%=      5-min Rain = 0.03
KCR1 250255Z 27020G26KT 17/16 A2983 RMK A01 T01700155  RH  091%=      5-min Rain = 0.03
KCR1 250256Z 27015KT 17/15 A2983 RMK A01 T01690154  RH  091%=      5-min Rain = 0.03
KCR1 250257Z 27014G22KT 17/16 A2984 RMK A01 T01700156  RH  091%=      5-min Rain = 0.02
KCR1 250258Z 28017G22KT 17/16 A2983 RMK A01 T01690155  RH  092%=      5-min Rain = 0.02
KCR1 250259Z 29014KT 17/16 A2984 RMK A01 T01680155  RH  092%=      5-min Rain = 0.02
KCR1 250300Z 28014G19KT 17/16 A2984 RMK A01 T01680156  RH  093%=      5-min Rain = 0.02
KCR1 250301Z 28012KT 17/16 A2984 RMK A01 T01680156  RH  093%=      5-min Rain = 0.03
KCR1 250302Z 28013KT 17/16 A2985 RMK A01 T01680156  RH  093%=      5-min Rain = 0.04
KCR1 250303Z 26009KT 17/16 A2986 RMK A01 T01680156  RH  092%=      5-min Rain = 0.06
KCR1 250304Z 26009KT 17/16 A2987 RMK A01 T01680156  RH  093%=      5-min Rain = 0.04
KCR1 250305Z 25008KT 17/16 A2987 RMK A01 T01670156  RH  093%=      5-min Rain = 0.02
KCR1 250306Z 25009KT 17/16 A2987 RMK A01 T01670157  RH  094%=      5-min Rain = 0.02
KCR1 250307Z 25011KT 17/16 A2987 RMK A01 T01660156  RH  094%=      5-min Rain = 0.03
KCR1 250308Z 24010KT 17/16 A2986 RMK A01 T01660157  RH  095%=      5-min Rain = 0.02
KCR1 250309Z 24009KT 17/16 A2986 RMK A01 T01650157  RH  095%=      5-min Rain = 0.01
KCR1 250310Z 24008KT 17/16 A2985 RMK A01 T01650158  RH  095%=      5-min Rain = 0.01
KCR1 250311Z 25007KT 17/16 A2985 RMK A01 T01650158  RH  096%=      5-min Rain = 0.01
KCR1 250312Z 25009KT 17/16 A2985 RMK A01 T01650158  RH  096%=      5-min Rain = 0.01
KCR1 250313Z 25007KT 17/16 A2985 RMK A01 T01650159  RH  096%=      5-min Rain = 0.01
KCR1 250314Z 25009KT 16/16 A2985 RMK A01 T01640159  RH  096%=      5-min Rain = 0.01
KCR1 250315Z 25010KT 17/16 A2985 RMK A01 T01650159  RH  096%=      5-min Rain = 0.02
KCR1 250316Z 24008KT 16/16 A2986 RMK A01 T01640159  RH  096%=      5-min Rain = 0
KCR1 250317Z 25007KT 16/16 A2986 RMK A01 T01640159  RH  097%=      5-min Rain = 0.01
KCR1 250318Z 25007KT 16/16 A2986 RMK A01 T01640159  RH  096%=      5-min Rain = 0.01
KCR1 250319Z 25006KT 16/16 A2986 RMK A01 T01640159  RH  097%=      5-min Rain = 0.01
KCR1 250320Z 25006KT 16/16 A2986 RMK A01 T01640158  RH  096%=      5-min Rain = 0.01
KCR1 250321Z 25006KT 16/16 A2986 RMK A01 T01640158  RH  096%=      5-min Rain = 0.01
KCR1 250322Z 24005KT 16/16 A2986 RMK A01 T01630157  RH  096%=      5-min Rain = 0
KCR1 250323Z 25005KT 16/16 A2986 RMK A01 T01630157  RH  096%=      5-min Rain = 0.01
KCR1 250324Z 25004KT 16/16 A2986 RMK A01 T01630158  RH  096%=      5-min Rain = 0.01
KCR1 250325Z 24004KT 16/16 A2987 RMK A01 T01630158  RH  097%=      5-min Rain = 0.01
KCR1 250326Z 24003KT 16/16 A2987 RMK A01 T01640158  RH  096%=      5-min Rain = 0.01
KCR1 250327Z 23003KT 16/16 A2987 RMK A01 T01640159  RH  097%=      5-min Rain = 0
KCR1 250328Z 24005KT 16/16 A2987 RMK A01 T01640158  RH  097%=      5-min Rain = 0.01
KCR1 250329Z 23004KT 16/16 A2987 RMK A01 T01640158  RH  097%=      5-min Rain = 0.01
KCR1 250330Z 22004KT 16/16 A2986 RMK A01 T01640158  RH  097%=      5-min Rain = 0
KCR1 250331Z 23004KT 16/16 A2986 RMK A01 T01640159  RH  097%=      5-min Rain = 0.01
KCR1 250332Z 22003KT 16/16 A2986 RMK A01 T01630158  RH  097%=      5-min Rain = 0
KCR1 250333Z 21003KT 16/16 A2985 RMK A01 T01630158  RH  097%=      5-min Rain = 0.01
KCR1 250334Z 21003KT 16/16 A2985 RMK A01 T01640159  RH  097%=      5-min Rain = 0
KCR1 250335Z 22003KT 16/16 A2985 RMK A01 T01640159  RH  097%=      5-min Rain = 0
KCR1 250336Z 24003KT 17/16 A2985 RMK A01 T01650160  RH  097%=      5-min Rain = 0.01
KCR1 250337Z 24005KT 17/16 A2985 RMK A01 T01650161  RH  097%=      5-min Rain = 0
KCR1 250338Z 25007KT 17/16 A2985 RMK A01 T01650161  RH  097%=      5-min Rain = 0
KCR1 250339Z 25007KT 17/16 A2984 RMK A01 T01650160  RH  097%=      5-min Rain = 0
KCR1 250340Z 24009KT 17/16 A2984 RMK A01 T01650160  RH  097%=      5-min Rain = 0
KCR1 250341Z 25008KT 17/16 A2985 RMK A01 T01650160  RH  097%=      5-min Rain = 0
KCR1 250342Z 26007KT 17/16 A2984 RMK A01 T01660161  RH  097%=      5-min Rain = 0
KCR1 250343Z 25007KT 17/16 A2984 RMK A01 T01670161  RH  096%=      5-min Rain = 0
KCR1 250344Z 26006KT 17/16 A2985 RMK A01 T01670161  RH  096%=      5-min Rain = 0
KCR1 250345Z 26007KT 17/16 A2985 RMK A01 T01670161  RH  096%=      5-min Rain = 0.01
KCR1 250346Z 26006KT 17/16 A2985 RMK A01 T01680161  RH  095%=      5-min Rain = 0
KCR1 250347Z 25007KT 17/16 A2985 RMK A01 T01690161  RH  095%=      5-min Rain = 0
KCR1 250348Z 26007KT 17/16 A2985 RMK A01 T01690161  RH  095%=      5-min Rain = 0
KCR1 250349Z 24008KT 17/16 A2985 RMK A01 T01690161  RH  095%=      5-min Rain = 0
KCR1 250350Z 25008KT 17/16 A2985 RMK A01 T01690160  RH  094%=      5-min Rain = 0
KCR1 250351Z 26009KT 17/16 A2985 RMK A01 T01700160  RH  094%=      5-min Rain = 0
KCR1 250352Z 26006KT 17/16 A2985 RMK A01 T01700159  RH  094%=      5-min Rain = 0
KCR1 250353Z 25006KT 17/16 A2985 RMK A01 T01700159  RH  093%=      5-min Rain = 0
KCR1 250354Z 26005KT 17/16 A2985 RMK A01 T01700159  RH  093%=      5-min Rain = 0
KCR1 250355Z 28003KT 17/16 A2985 RMK A01 T01690159  RH  094%=      5-min Rain = 0.01
KCR1 250356Z 27003KT 17/16 A2986 RMK A01 T01690159  RH  094%=      5-min Rain = 0
KCR1 250357Z 31002KT 17/16 A2986 RMK A01 T01690159  RH  094%=      5-min Rain = 0
KCR1 250358Z 31002KT 17/16 A2986 RMK A01 T01690159  RH  094%=      5-min Rain = 0
KCR1 250359Z 02003KT 17/16 A2987 RMK A01 T01690159  RH  094%=      5-min Rain = 0
KCR1 250400Z 04004KT 17/16 A2987 RMK A01 T01690159  RH  094%=      5-min Rain = 0
KCR1 250401Z 03005KT 17/16 A2987 RMK A01 T01700161  RH  094%=      5-min Rain = 0
KCR1 250402Z 03006KT 17/16 A2988 RMK A01 T01700161  RH  094%=      5-min Rain = 0
KCR1 250403Z 02007KT 17/16 A2988 RMK A01 T01710162  RH  095%=      5-min Rain = 0
KCR1 250404Z 03008KT 17/16 A2988 RMK A01 T01710163  RH  095%=      5-min Rain = 0
KCR1 250405Z 03009KT 17/16 A2988 RMK A01 T01710163  RH  095%=      5-min Rain = 0
KCR1 250406Z 02010KT 17/16 A2989 RMK A01 T01710163  RH  095%=      5-min Rain = 0.01
KCR1 250407Z 02008KT 17/16 A2989 RMK A01 T01700163  RH  095%=      5-min Rain = 0
KCR1 250408Z 02009KT 17/16 A2989 RMK A01 T01700163  RH  095%=      5-min Rain = 0
KCR1 250409Z 03008KT 17/16 A2989 RMK A01 T01700163  RH  096%=      5-min Rain = 0
KCR1 250410Z 02010KT 17/16 A299 RMK A01 T01690162  RH  096%=      5-min Rain = 0
KCR1 250411Z 02010KT 17/16 A299 RMK A01 T01680161  RH  096%=      5-min Rain = 0.01
KCR1 250412Z 02009KT 17/16 A299 RMK A01 T01680161  RH  096%=      5-min Rain = 0
KCR1 250413Z 02010KT 17/16 A2991 RMK A01 T01680161  RH  096%=      5-min Rain = 0
KCR1 250414Z 02008KT 17/16 A2991 RMK A01 T01670161  RH  096%=      5-min Rain = 0.01
KCR1 250415Z 02011KT 17/16 A2991 RMK A01 T01670162  RH  097%=      5-min Rain = 0
KCR1 250416Z 03011KT 17/16 A2991 RMK A01 T01670162  RH  097%=      5-min Rain = 0.01
KCR1 250417Z 02012KT 17/16 A2991 RMK A01 T01670162  RH  097%=      5-min Rain = 0
KCR1 250418Z 03011KT 17/16 A2991 RMK A01 T01660161  RH  097%=      5-min Rain = 0
KCR1 250419Z 02012KT 17/16 A2991 RMK A01 T01660161  RH  097%=      5-min Rain = 0.01
KCR1 250420Z 03011KT 17/16 A2991 RMK A01 T01660161  RH  097%=      5-min Rain = 0
KCR1 250421Z 02011KT 17/16 A2991 RMK A01 T01660162  RH  097%=      5-min Rain = 0
KCR1 250422Z 03010KT 17/16 A2991 RMK A01 T01660162  RH  097%=      5-min Rain = 0.01
KCR1 250423Z 03011KT 17/16 A2991 RMK A01 T01660162  RH  097%=      5-min Rain = 0
KCR1 250424Z 03010KT 17/16 A2991 RMK A01 T01660162  RH  097%=      5-min Rain = 0.01
KCR1 250425Z 03010KT 17/16 A2991 RMK A01 T01660162  RH  097%=      5-min Rain = 0
KCR1 250426Z 02010KT 17/16 A2991 RMK A01 T01660162  RH  097%=      5-min Rain = 0.01
KCR1 250427Z 02010KT 17/16 A2991 RMK A01 T01660162  RH  097%=      5-min Rain = 0
KCR1 250428Z 02010KT 17/16 A2991 RMK A01 T01650161  RH  097%=      5-min Rain = 0.01
KCR1 250429Z 02009KT 17/16 A2991 RMK A01 T01660161  RH  097%=      5-min Rain = 0
KCR1 250430Z 02009KT 17/16 A2991 RMK A01 T01650161  RH  097%=      5-min Rain = 0.01
KCR1 250431Z 01010KT 17/16 A299 RMK A01 T01650161  RH  097%=      5-min Rain = 0
KCR1 250432Z 02010KT 17/16 A299 RMK A01 T01660162  RH  097%=      5-min Rain = 0.01
KCR1 250433Z 01011KT 17/16 A299 RMK A01 T01650161  RH  097%=      5-min Rain = 0
KCR1 250434Z 02009KT 17/16 A299 RMK A01 T01650161  RH  097%=      5-min Rain = 0.01
KCR1 250435Z 01010KT 17/16 A299 RMK A01 T01650161  RH  097%=      5-min Rain = 0
KCR1 250436Z 02009KT 17/16 A299 RMK A01 T01660162  RH  097%=      5-min Rain = 0.01
KCR1 250437Z 02010KT 17/16 A2991 RMK A01 T01660161  RH  097%=      5-min Rain = 0.01
KCR1 250438Z 02009KT 17/16 A2991 RMK A01 T01660161  RH  097%=      5-min Rain = 0
KCR1 250439Z 02009KT 17/16 A299 RMK A01 T01660162  RH  097%=      5-min Rain = 0.01
KCR1 250440Z 02008KT 17/16 A299 RMK A01 T01660162  RH  097%=      5-min Rain = 0.01
KCR1 250441Z 02009KT 17/16 A299 RMK A01 T01650162  RH  098%=      5-min Rain = 0
KCR1 250442Z 02012KT 17/16 A299 RMK A01 T01660162  RH  098%=      5-min Rain = 0.01
KCR1 250443Z 02011KT 17/16 A299 RMK A01 T01650161  RH  098%=      5-min Rain = 0.01
KCR1 250444Z 02011KT 17/16 A299 RMK A01 T01650161  RH  098%=      5-min Rain = 0
KCR1 250445Z 02011KT 17/16 A299 RMK A01 T01650161  RH  097%=      5-min Rain = 0.01
KCR1 250446Z 02010KT 17/16 A299 RMK A01 T01650161  RH  098%=      5-min Rain = 0
KCR1 250447Z 02010KT 17/16 A299 RMK A01 T01650161  RH  098%=      5-min Rain = 0.01
KCR1 250448Z 02010KT 17/16 A299 RMK A01 T01650161  RH  098%=      5-min Rain = 0
KCR1 250449Z 02011KT 17/16 A299 RMK A01 T01650161  RH  098%=      5-min Rain = 0.01
KCR1 250450Z 03009KT 17/16 A299 RMK A01 T01650161  RH  098%=      5-min Rain = 0.01
KCR1 250451Z 03008KT 17/16 A299 RMK A01 T01650161  RH  098%=      5-min Rain = 0
KCR1 250452Z 02010KT 17/16 A299 RMK A01 T01650161  RH  098%=      5-min Rain = 0.01
KCR1 250453Z 02009KT 17/16 A299 RMK A01 T01650161  RH  098%=      5-min Rain = 0
KCR1 250454Z 03009KT 17/16 A299 RMK A01 T01650162  RH  098%=      5-min Rain = 0
KCR1 250455Z 03010KT 17/16 A299 RMK A01 T01650162  RH  098%=      5-min Rain = 0.01
KCR1 250456Z 03009KT 17/16 A299 RMK A01 T01650162  RH  098%=      5-min Rain = 0
KCR1 250457Z 03011KT 17/16 A2991 RMK A01 T01650162  RH  098%=      5-min Rain = 0
KCR1 250458Z 02009KT 17/16 A2991 RMK A01 T01650162  RH  098%=      5-min Rain = 0
KCR1 250459Z 02011KT 17/16 A2991 RMK A01 T01650162  RH  098%=      5-min Rain = 0.01

Page generated in 0.1198 seconds.